TU791 / TS-IMS 7700 Squawk Report (6th of December, 2019)

Time Lat Lon Altitude Heading Speed Vertical Rate
2019-12-06 22:33:32 GMT 38.012276 10.208329 20,550 168 411 -2624
2019-12-06 22:32:34 GMT 38.118320 10.180803 23,225 168 424 -2944
2019-12-06 22:32:22 GMT 38.139084 10.175430 23,750 168 427 -3008
2019-12-06 22:32:08 GMT 38.167786 10.167905 24,550 168 429 -3648
2019-12-06 22:31:51 GMT 38.199371 10.159428 25,425 166 435 -2496
2019-12-06 22:31:48 GMT 38.204445 10.157995 25,550 166 436 -2432
2019-12-06 22:31:39 GMT 38.224091 10.150949 25,975 160 449 -2688
2019-12-06 22:31:23 GMT 38.254852 10.134888 26,775 151 468 -2880
2019-12-06 22:31:18 GMT 38.263641 10.129161 27,000 151 468 -3072
2019-12-06 22:31:09 GMT 38.283463 10.115311 27,525 150 472 -3264
2019-12-06 22:30:57 GMT 38.302963 10.101578 28,100 151 474 -3392
2019-12-06 22:30:48 GMT 38.322189 10.088079 28,650 151 475 -3520
2019-12-06 22:30:38 GMT 38.340271 10.075339 29,250 150 476 -3584
2019-12-06 22:30:32 GMT 38.352219 10.066866 29,600 150 481 -2624
2019-12-06 22:30:27 GMT 38.361465 10.060312 29,850 150 479 -3008
2019-12-06 22:30:16 GMT 38.382797 10.045127 30,400 150 483 -2176
2019-12-06 22:30:07 GMT 38.400475 10.032548 30,700 150 491 -2112
2019-12-06 22:29:57 GMT 38.421936 10.017334 31,150 151 493 -3648
2019-12-06 22:29:52 GMT 38.429943 10.011719 31,450 151 490 -4608
2019-12-06 22:29:47 GMT 38.439903 10.004761 31,775 151 488 -4672
2019-12-06 22:29:40 GMT 38.453777 9.995056 32,300 151 485 -4672
2019-12-06 22:29:36 GMT 38.462017 9.989258 32,600 151 482 -4928
2019-12-06 22:29:31 GMT 38.473331 9.981262 33,050 151 478 -4928
2019-12-06 22:29:26 GMT 38.480312 9.976379 33,425 151 476 -4480
2019-12-06 22:29:17 GMT 38.500671 9.961972 34,125 150 474 -3008
2019-12-06 22:29:10 GMT 38.512573 9.953494 34,425 150 475 -2496
2019-12-06 22:29:06 GMT 38.520252 9.948059 34,825 150 479 -1856
2019-12-06 22:28:56 GMT 38.538757 9.934805 34,950 150 480 -1856
2019-12-06 22:28:50 GMT 38.551987 9.925371 35,350 150 481 -1856
2019-12-06 22:28:46 GMT 38.560135 9.919520 35,275 150 482 -1856
2019-12-06 22:28:35 GMT 38.578815 9.906250 35,600 150 480 -1728
2019-12-06 22:28:25 GMT 38.600143 9.891099 35,900 150 479 -1664
2019-12-06 22:28:16 GMT 38.617970 9.878479 36,200 150 477 -1728
2019-12-06 22:28:10 GMT 38.628754 9.870798 36,350 150 475 -1408
2019-12-06 22:28:05 GMT 38.638775 9.863708 36,475 150 475 -1280
2019-12-06 22:27:59 GMT 38.650314 9.855513 36,600 150 473 -896
2019-12-06 22:27:55 GMT 38.657955 9.850098 36,650 150 472 -896
2019-12-06 22:27:50 GMT 38.667919 9.843018 36,750 150 472 -960
2019-12-06 22:27:45 GMT 38.676670 9.836792 36,800 150 471 -960
2019-12-06 22:27:34 GMT 38.698410 9.821289 36,975 150 473 -960
2019-12-06 22:27:29 GMT 38.707993 9.814433 37,075 150 473 -960
2019-12-06 22:27:24 GMT 38.716003 9.808701 37,150 150 473 -896
2019-12-06 22:27:18 GMT 38.728592 9.799745 37,250 150 473 -896
2019-12-06 22:27:15 GMT 38.735466 9.794800 37,300 150 472 -960
2019-12-06 22:27:10 GMT 38.747681 9.786131 37,400 150 471 -960
2019-12-06 22:27:04 GMT 38.754913 9.780997 37,475 150 470 -960
2019-12-06 22:26:58 GMT 38.766312 9.772876 37,575 150 469 -1024
2019-12-06 22:26:52 GMT 38.778435 9.764221 37,675 150 468 -1024
2019-12-06 22:26:48 GMT 38.785648 9.759094 37,750 150 467 -1024
2019-12-06 22:26:44 GMT 38.793564 9.753418 37,825 150 466 -1024
2019-12-06 22:26:33 GMT 38.813141 9.739440 38,000 150 465 -1024
2019-12-06 22:26:23 GMT 38.832249 9.725830 38,175 150 463 -896
2019-12-06 22:26:17 GMT 38.845322 9.716452 38,275 150 462 -832
2019-12-06 22:26:13 GMT 38.849796 9.713257 38,325 150 462 -832
2019-12-06 22:26:07 GMT 38.863949 9.703125 38,425 150 460 -832
2019-12-06 22:26:03 GMT 38.870682 9.698360 38,475 150 460 -832
2019-12-06 22:25:53 GMT 38.889645 9.684753 38,625 150 461 -896
2019-12-06 22:25:45 GMT 38.902309 9.675659 38,725 150 459 0
2019-12-06 22:25:42 GMT 38.908264 9.671372 38,800 150 462 -896
2019-12-06 22:25:36 GMT 38.921310 9.661998 38,900 150 462 -512
2019-12-06 22:25:32 GMT 38.927261 9.657715 38,950 150 461 -256
2019-12-06 22:25:23 GMT 38.945461 9.644592 38,975 150 459 64
2019-12-06 22:25:12 GMT 38.964340 9.631009 38,975 150 458 0
2019-12-06 22:25:02 GMT 38.982098 9.618286 38,975 150 458 64
2019-12-06 22:24:52 GMT 39.001324 9.604492 38,975 150 458 64
2019-12-06 22:24:41 GMT 39.022411 9.589355 38,975 150 457 0
2019-12-06 22:24:31 GMT 39.039368 9.577152 38,975 150 457 -64
2019-12-06 22:24:22 GMT 39.058910 9.563049 38,975 150 456 64
2019-12-06 22:24:11 GMT 39.075897 9.550821 38,975 150 456 128
2019-12-06 22:24:01 GMT 39.095764 9.536431 38,950 150 457 128
2019-12-06 22:23:51 GMT 39.112724 9.524170 38,950 150 457 0
2019-12-06 22:23:40 GMT 39.134445 9.508428 38,975 150 456 0
2019-12-06 22:23:30 GMT 39.152847 9.495113 38,975 150 457 -64
2019-12-06 22:23:20 GMT 39.171661 9.481567 39,000 150 457 -128
2019-12-06 22:23:10 GMT 39.190094 9.468262 39,000 150 456 0
2019-12-06 22:23:00 GMT 39.207413 9.455750 39,025 150 457 -64
2019-12-06 22:22:50 GMT 39.226273 9.442152 39,025 150 458 0
2019-12-06 22:22:39 GMT 39.246189 9.427673 39,050 150 459 -64
2019-12-06 22:22:29 GMT 39.264717 9.414246 39,050 150 460 64
2019-12-06 22:22:20 GMT 39.283630 9.400476 39,050 150 461 0
2019-12-06 22:22:09 GMT 39.301495 9.387512 39,050 150 462 64
2019-12-06 22:21:59 GMT 39.321259 9.373129 39,050 150 463 64
2019-12-06 22:21:48 GMT 39.340321 9.359314 39,050 150 465 64
2019-12-06 22:21:38 GMT 39.359776 9.345093 39,025 150 465 64
2019-12-06 22:21:29 GMT 39.378120 9.331726 39,025 150 466 128
2019-12-06 22:21:18 GMT 39.397671 9.317505 39,000 150 466 64
2019-12-06 22:21:08 GMT 39.417572 9.302972 39,000 150 466 64
2019-12-06 22:20:58 GMT 39.435242 9.290075 39,000 150 466 64
2019-12-06 22:20:47 GMT 39.455521 9.275267 38,975 150 466 0
2019-12-06 22:20:37 GMT 39.473145 9.262370 39,000 150 465 0
2019-12-06 22:20:28 GMT 39.492645 9.248100 39,000 150 465 0
2019-12-06 22:20:17 GMT 39.512840 9.233337 39,000 150 465 0
2019-12-06 22:20:07 GMT 39.530777 9.220216 39,000 150 464 0
2019-12-06 22:19:57 GMT 39.550594 9.205688 39,000 150 464 64
2019-12-06 22:19:49 GMT 39.562557 9.196960 39,000 150 464 0
2019-12-06 22:19:46 GMT 39.570427 9.191223 39,000 150 464 0
2019-12-06 22:19:39 GMT 39.582718 9.182129 39,000 150 464 0
2019-12-06 22:19:36 GMT 39.588730 9.177764 39,000 150 464 0
2019-12-06 22:19:27 GMT 39.605900 9.165161 39,000 150 464 64
2019-12-06 22:19:16 GMT 39.625671 9.150656 39,000 150 464 0
2019-12-06 22:19:08 GMT 39.641327 9.139192 39,000 150 463 0
2019-12-06 22:19:05 GMT 39.646545 9.135311 39,000 150 463 0
2019-12-06 22:18:56 GMT 39.662971 9.123230 39,000 150 464 64
2019-12-06 22:18:45 GMT 39.683853 9.107845 39,000 150 463 -64
2019-12-06 22:18:35 GMT 39.701385 9.094948 39,000 150 463 0
2019-12-06 22:18:26 GMT 39.721481 9.080140 39,000 150 462 64
2019-12-06 22:18:15 GMT 39.738621 9.067566 39,000 150 463 0
2019-12-06 22:18:05 GMT 39.757984 9.053223 39,000 150 464 0
2019-12-06 22:17:55 GMT 39.777306 9.038879 39,000 150 464 0
2019-12-06 22:17:47 GMT 39.791828 9.028137 39,000 150 463 0
2019-12-06 22:17:44 GMT 39.796299 9.024841 39,000 150 463 64
2019-12-06 22:17:34 GMT 39.816010 9.010282 39,000 150 462 64
2019-12-06 22:17:25 GMT 39.834236 8.996765 39,000 150 462 0
2019-12-06 22:17:17 GMT 39.848019 8.986572 39,000 150 463 0
2019-12-06 22:17:14 GMT 39.853226 8.982756 39,000 150 463 -64
2019-12-06 22:17:04 GMT 39.870712 8.969800 39,000 150 462 0
2019-12-06 22:16:59 GMT 39.885910 8.958515 39,000 150 462 0
2019-12-06 22:16:56 GMT 39.891869 8.954102 39,000 150 462 64
2019-12-06 22:16:46 GMT 39.905273 8.944185 39,000 150 462 0
2019-12-06 22:16:43 GMT 39.911934 8.939209 39,000 150 462 0
2019-12-06 22:16:40 GMT 39.916405 8.935913 39,000 150 462 0
2019-12-06 22:16:33 GMT 39.929031 8.926575 39,000 150 462 0
2019-12-06 22:16:24 GMT 39.948009 8.912471 39,000 150 463 0
2019-12-06 22:16:16 GMT 39.960255 8.903358 39,000 150 462 64
2019-12-06 22:16:13 GMT 39.965836 8.899231 39,000 150 462 64
2019-12-06 22:16:06 GMT 39.978085 8.890124 39,000 150 463 64
2019-12-06 22:16:03 GMT 39.985153 8.884888 39,000 150 463 64
2019-12-06 22:15:57 GMT 39.998150 8.875205 39,000 150 463 64
2019-12-06 22:15:52 GMT 40.004852 8.870212 39,000 150 463 0
2019-12-06 22:15:42 GMT 40.024220 8.855792 39,000 150 464 -64
2019-12-06 22:15:33 GMT 40.043198 8.841675 39,000 150 463 -64
2019-12-06 22:15:25 GMT 40.053589 8.833923 39,025 150 463 -64
2019-12-06 22:15:22 GMT 40.061787 8.827827 39,025 150 463 -64
2019-12-06 22:15:15 GMT 40.073685 8.818970 39,025 150 463 64
2019-12-06 22:15:12 GMT 40.080780 8.813721 39,025 150 463 64
2019-12-06 22:15:05 GMT 40.093048 8.804565 39,025 150 463 64
2019-12-06 22:15:02 GMT 40.098221 8.800659 39,025 150 463 64
2019-12-06 22:14:51 GMT 40.118717 8.785380 39,025 150 464 64
2019-12-06 22:14:41 GMT 40.137341 8.771397 39,000 150 464 64
2019-12-06 22:14:32 GMT 40.156006 8.757477 39,000 150 465 64
2019-12-06 22:14:21 GMT 40.176498 8.742126 39,000 150 464 128
2019-12-06 22:14:11 GMT 40.193253 8.729553 38,975 150 464 0
2019-12-06 22:14:05 GMT 40.205566 8.720398 38,975 150 464 -64
2019-12-06 22:14:01 GMT 40.212986 8.714780 39,000 150 464 -64
2019-12-06 22:13:50 GMT 40.230881 8.701416 39,000 150 464 0
2019-12-06 22:13:44 GMT 40.243149 8.692200 39,000 150 464 64
2019-12-06 22:13:40 GMT 40.250977 8.686340 39,000 150 463 64
2019-12-06 22:13:34 GMT 40.263218 8.677077 39,000 150 464 64
2019-12-06 22:13:31 GMT 40.270664 8.671521 39,000 150 465 64
2019-12-06 22:13:20 GMT 40.287781 8.658630 39,000 150 464 64
2019-12-06 22:13:13 GMT 40.302322 8.647738 38,975 150 464 64
2019-12-06 22:13:10 GMT 40.308243 8.643250 38,975 150 463 64
2019-12-06 22:13:04 GMT 40.317947 8.635986 38,975 150 463 -64
2019-12-06 22:12:59 GMT 40.326111 8.629823 38,975 150 463 -64
2019-12-06 22:12:53 GMT 40.338043 8.620911 39,000 150 463 0
2019-12-06 22:12:49 GMT 40.345825 8.615051 39,000 150 463 64
2019-12-06 22:12:44 GMT 40.357361 8.606384 39,000 150 464 0
2019-12-06 22:12:39 GMT 40.364044 8.601318 39,000 150 464 0
2019-12-06 22:12:33 GMT 40.375175 8.592932 39,000 150 464 0
2019-12-06 22:12:29 GMT 40.382996 8.587064 39,000 150 463 64
2019-12-06 22:12:23 GMT 40.394119 8.578674 39,000 150 463 0
2019-12-06 22:12:20 GMT 40.402679 8.572205 39,000 150 463 0
2019-12-06 22:12:13 GMT 40.412338 8.564941 39,000 150 463 0
2019-12-06 22:12:09 GMT 40.419388 8.559631 39,000 150 464 -64
2019-12-06 22:12:03 GMT 40.431656 8.550354 39,000 150 464 -64
2019-12-06 22:11:59 GMT 40.439091 8.544742 39,000 150 464 -64
2019-12-06 22:11:49 GMT 40.457703 8.530701 39,025 150 464 -64
2019-12-06 22:11:43 GMT 40.469212 8.522020 39,025 150 464 -64
2019-12-06 22:11:38 GMT 40.477776 8.515528 39,025 149 464 -64
2019-12-06 22:11:32 GMT 40.489273 8.506789 39,025 149 464 0
2019-12-06 22:11:28 GMT 40.495605 8.502014 39,025 149 464 0
2019-12-06 22:11:22 GMT 40.507523 8.492931 39,000 149 465 0
2019-12-06 22:11:19 GMT 40.515701 8.486755 39,025 149 464 64
2019-12-06 22:11:11 GMT 40.528702 8.476868 39,025 150 465 128
2019-12-06 22:11:08 GMT 40.534286 8.472656 39,025 150 465 128
2019-12-06 22:11:01 GMT 40.545834 8.463905 39,025 149 465 64
2019-12-06 22:10:58 GMT 40.551819 8.459412 39,000 149 465 64
2019-12-06 22:10:52 GMT 40.563759 8.450359 39,000 149 465 64
2019-12-06 22:10:48 GMT 40.571579 8.444429 39,000 149 466 128
2019-12-06 22:10:42 GMT 40.583122 8.435627 39,000 149 465 0
2019-12-06 22:10:37 GMT 40.590958 8.429688 39,000 149 466 0
2019-12-06 22:10:31 GMT 40.601791 8.421457 39,000 149 466 0
2019-12-06 22:10:27 GMT 40.609985 8.415215 39,000 149 466 0
2019-12-06 22:10:22 GMT 40.620804 8.406982 39,000 149 465 0
2019-12-06 22:10:17 GMT 40.630512 8.399610 39,000 149 465 -64
2019-12-06 22:10:11 GMT 40.639069 8.393127 39,000 149 465 0
2019-12-06 22:10:08 GMT 40.646942 8.387207 39,000 149 465 0
2019-12-06 22:10:01 GMT 40.658863 8.378136 39,000 149 465 0
2019-12-06 22:09:57 GMT 40.667038 8.371887 39,000 149 465 0
2019-12-06 22:09:52 GMT 40.675964 8.365112 39,000 149 464 64
2019-12-06 22:09:47 GMT 40.684525 8.358582 39,000 149 464 64
2019-12-06 22:09:41 GMT 40.695328 8.350342 39,000 149 465 0
2019-12-06 22:09:37 GMT 40.703888 8.343872 39,000 149 466 0
2019-12-06 22:09:31 GMT 40.715424 8.335022 39,000 149 466 -64
2019-12-06 22:09:27 GMT 40.721756 8.330196 39,000 149 466 -64
2019-12-06 22:09:20 GMT 40.733643 8.321106 39,000 149 465 0
2019-12-06 22:09:15 GMT 40.744446 8.312866 39,000 149 465 0
2019-12-06 22:09:11 GMT 40.761520 8.299805 39,000 149 465 0
2019-12-06 22:09:06 GMT 40.761520 8.299805 39,000 149 465 64
2019-12-06 22:09:01 GMT 40.769714 8.293579 39,000 149 465 0
2019-12-06 22:08:56 GMT 40.779388 8.286188 39,000 149 465 -64
2019-12-06 22:08:50 GMT 40.799080 8.271145 39,000 149 463 64
2019-12-06 22:08:46 GMT 40.799080 8.271145 39,000 149 463 64
2019-12-06 22:08:37 GMT 40.816864 8.257507 39,000 149 463 64
2019-12-06 22:08:30 GMT 40.827621 8.249268 39,000 149 464 64
2019-12-06 22:08:26 GMT 40.835449 8.243286 39,000 149 465 64
2019-12-06 22:08:16 GMT 40.852520 8.230195 39,000 149 465 64
2019-12-06 22:08:09 GMT 40.866253 8.219646 39,000 149 465 0
2019-12-06 22:08:06 GMT 40.873718 8.213928 39,000 149 465 0
2019-12-06 22:08:00 GMT 40.891907 8.199983 39,000 149 465 0
2019-12-06 22:07:56 GMT 40.891907 8.199983 39,000 149 465 0
2019-12-06 22:07:49 GMT 40.903076 8.191431 39,000 149 465 0
2019-12-06 22:07:46 GMT 40.910107 8.186000 39,000 149 465 0
2019-12-06 22:07:40 GMT 40.920860 8.177761 39,000 149 465 0
2019-12-06 22:07:35 GMT 40.929794 8.170898 39,000 149 465 0
2019-12-06 22:07:29 GMT 40.940926 8.162342 39,000 149 465 0
2019-12-06 22:07:25 GMT 40.948372 8.156662 39,000 149 465 -64
2019-12-06 22:07:20 GMT 40.957993 8.149231 39,000 149 464 0
2019-12-06 22:07:16 GMT 40.966553 8.142639 39,000 149 464 0
2019-12-06 22:07:10 GMT 40.978771 8.133191 39,000 149 464 64
2019-12-06 22:07:04 GMT 40.986919 8.126887 39,000 149 464 64
2019-12-06 22:06:59 GMT 40.995850 8.120056 39,000 149 464 0
2019-12-06 22:06:55 GMT 41.004364 8.113464 39,000 149 464 0
2019-12-06 22:06:48 GMT 41.017319 8.103455 39,000 149 464 0
2019-12-06 22:06:45 GMT 41.023273 8.098859 39,000 149 464 0
2019-12-06 22:06:38 GMT 41.034760 8.090027 39,000 149 464 0
2019-12-06 22:06:35 GMT 41.042175 8.084252 39,000 149 464 64
2019-12-06 22:06:28 GMT 41.053253 8.075684 39,000 149 464 64
2019-12-06 22:06:25 GMT 41.060303 8.070251 38,975 149 464 64
2019-12-06 22:06:17 GMT 41.076645 8.057617 38,975 149 464 64
2019-12-06 22:06:09 GMT 41.089611 8.047610 38,975 149 464 0
2019-12-06 22:06:04 GMT 41.099258 8.040161 38,975 149 464 0
2019-12-06 22:05:58 GMT 41.109283 8.032410 39,000 149 464 0
2019-12-06 22:05:54 GMT 41.117798 8.025818 38,975 149 464 0
2019-12-06 22:05:49 GMT 41.126724 8.018921 38,975 149 464 -64
2019-12-06 22:05:45 GMT 41.135239 8.012390 38,975 149 464 -128
2019-12-06 22:05:37 GMT 41.150848 8.000366 39,000 149 464 -128
2019-12-06 22:05:34 GMT 41.164886 7.989433 39,025 149 464 -64
2019-12-06 22:05:28 GMT 41.164886 7.989433 39,000 149 463 64
2019-12-06 22:05:24 GMT 41.170845 7.984876 39,000 149 463 64
2019-12-06 22:05:20 GMT 41.187836 7.971642 39,025 149 464 -64
2019-12-06 22:05:16 GMT 41.193378 7.967335 39,000 149 463 -64
2019-12-06 22:05:06 GMT 41.207111 7.956661 39,025 149 465 -64
2019-12-06 22:05:03 GMT 41.210789 7.953789 39,000 149 465 -64
2019-12-06 22:04:56 GMT 41.226013 7.941956 39,025 149 465 64
2019-12-06 22:04:53 GMT 41.230453 7.938538 39,025 149 464 -64
2019-12-06 22:04:48 GMT 41.240479 7.930725 39,050 149 465 64
2019-12-06 22:04:42 GMT 41.250870 7.922703 39,025 149 465 64
2019-12-06 22:04:35 GMT 41.263504 7.912903 39,025 149 466 128
2019-12-06 22:04:32 GMT 41.267944 7.909424 39,025 149 466 128
2019-12-06 22:04:28 GMT 41.277237 7.902161 39,025 149 466 64
2019-12-06 22:04:24 GMT 41.283920 7.896923 39,000 149 467 192
2019-12-06 22:04:17 GMT 41.298477 7.885620 39,000 149 468 128
2019-12-06 22:04:13 GMT 41.304062 7.881226 39,000 149 468 0
2019-12-06 22:04:05 GMT 41.321583 7.867522 39,000 149 468 0
2019-12-06 22:03:57 GMT 41.335033 7.857035 39,000 149 468 0
2019-12-06 22:03:54 GMT 41.340996 7.852353 39,000 149 468 0
2019-12-06 22:03:50 GMT 41.346256 7.848233 39,000 149 468 0
2019-12-06 22:03:45 GMT 41.356705 7.840088 39,000 149 468 64
2019-12-06 22:03:41 GMT 41.363434 7.834875 39,000 149 468 64
2019-12-06 22:03:37 GMT 41.372787 7.827572 39,000 149 468 0
2019-12-06 22:03:33 GMT 41.379864 7.822016 39,000 149 468 64
2019-12-06 22:03:26 GMT 41.390717 7.813527 39,000 149 468 64
2019-12-06 22:03:23 GMT 41.396671 7.808852 39,000 149 469 0
2019-12-06 22:03:14 GMT 41.415756 7.793926 39,000 149 469 64
2019-12-06 22:03:11 GMT 41.420929 7.789681 39,000 148 470 128
2019-12-06 22:03:07 GMT 41.429398 7.782565 39,000 146 471 128
2019-12-06 22:03:02 GMT 41.436630 7.776136 39,000 145 471 192
2019-12-06 22:02:56 GMT 41.446621 7.766823 39,000 143 472 192
2019-12-06 22:02:53 GMT 41.452927 7.760592 39,000 139 474 128
2019-12-06 22:02:46 GMT 41.471760 7.740635 39,000 139 474 128
2019-12-06 22:02:42 GMT 41.471760 7.740635 39,000 138 474 128
2019-12-06 22:02:36 GMT 41.481350 7.729457 39,000 137 475 128
2019-12-06 22:02:32 GMT 41.498291 7.708220 39,025 134 476 64
2019-12-06 22:02:26 GMT 41.498291 7.708220 39,025 134 475 64
2019-12-06 22:02:23 GMT 41.501404 7.704038 39,025 134 476 0
2019-12-06 22:02:19 GMT 41.509418 7.693176 39,025 134 476 0
2019-12-06 22:02:16 GMT 41.512802 7.688557 39,025 134 477 0
2019-12-06 22:02:13 GMT 41.517151 7.682689 39,025 134 477 0
2019-12-06 22:02:03 GMT 41.532578 7.661715 39,000 134 477 0
2019-12-06 22:01:57 GMT 41.541824 7.649169 39,000 134 477 0
2019-12-06 22:01:53 GMT 41.549515 7.638619 39,000 134 478 0
2019-12-06 22:01:42 GMT 41.564350 7.618444 39,025 134 477 64
2019-12-06 22:01:33 GMT 41.580048 7.596983 39,000 134 477 64
2019-12-06 22:01:29 GMT 41.585587 7.589430 39,000 134 477 64
2019-12-06 22:01:25 GMT 41.590839 7.582227 39,000 134 477 0
2019-12-06 22:01:22 GMT 41.595154 7.576384 39,000 134 477 0
2019-12-06 22:01:18 GMT 41.601315 7.567919 39,000 134 477 64
2019-12-06 22:01:15 GMT 41.607193 7.559905 39,000 134 477 0
2019-12-06 22:01:11 GMT 41.612411 7.552788 39,000 134 477 0
2019-12-06 22:01:05 GMT 41.623196 7.538026 39,000 134 477 0
2019-12-06 22:01:02 GMT 41.625988 7.534258 39,000 134 477 0
2019-12-06 22:00:59 GMT 41.630905 7.527507 39,000 134 477 0
2019-12-06 22:00:55 GMT 41.638000 7.517832 39,000 134 476 0
2019-12-06 22:00:52 GMT 41.642605 7.511519 39,000 134 476 0
2019-12-06 22:00:49 GMT 41.647568 7.504786 39,000 134 476 -64
2019-12-06 22:00:45 GMT 41.654022 7.495984 39,000 134 476 0
2019-12-06 22:00:42 GMT 41.658966 7.489243 39,000 134 476 0
2019-12-06 22:00:38 GMT 41.663269 7.483375 39,000 134 476 0
2019-12-06 22:00:34 GMT 41.670025 7.474088 39,000 134 476 0
2019-12-06 22:00:31 GMT 41.674030 7.468659 39,000 134 476 0
2019-12-06 22:00:27 GMT 41.680824 7.459397 39,000 134 476 0
2019-12-06 22:00:24 GMT 41.685104 7.453475 39,000 134 476 0
2019-12-06 22:00:19 GMT 41.695267 7.439617 39,000 134 475 0
2019-12-06 22:00:15 GMT 41.705685 7.425289 39,000 134 476 -64
2019-12-06 22:00:07 GMT 41.711552 7.417304 39,000 134 475 -64
2019-12-06 22:00:04 GMT 41.715832 7.411364 39,000 134 475 -64
2019-12-06 22:00:00 GMT 41.721653 7.403380 39,000 134 475 0
2019-12-06 21:59:57 GMT 41.727814 7.394985 39,000 134 475 0
2019-12-06 21:59:54 GMT 41.732407 7.388689 39,000 134 475 0
2019-12-06 21:59:50 GMT 41.736687 7.382749 39,000 134 475 64
2019-12-06 21:59:44 GMT 41.746490 7.369329 39,000 134 475 0
2019-12-06 21:59:40 GMT 41.752655 7.360904 39,000 134 475 -64
2019-12-06 21:59:35 GMT 41.769516 7.337744 39,000 134 475 -64
2019-12-06 21:59:30 GMT 41.771648 7.334843 39,000 134 473 0
2019-12-06 21:59:23 GMT 41.778725 7.325198 39,000 134 473 0
2019-12-06 21:59:18 GMT 41.788513 7.311776 39,000 134 473 0
2019-12-06 21:59:14 GMT 41.793686 7.304660 39,000 134 473 64
2019-12-06 21:59:07 GMT 41.803444 7.291217 39,000 134 473 64
2019-12-06 21:59:03 GMT 41.808937 7.283616 39,000 134 473 0
2019-12-06 21:58:58 GMT 41.817783 7.271416 39,000 134 473 0
2019-12-06 21:58:54 GMT 41.825417 7.260941 39,000 134 473 0
2019-12-06 21:58:49 GMT 41.841290 7.239032 39,000 134 473 0
2019-12-06 21:58:42 GMT 41.841290 7.239032 39,000 134 473 0
2019-12-06 21:58:38 GMT 41.847061 7.231064 39,000 134 472 -64
2019-12-06 21:58:31 GMT 41.857723 7.216421 39,000 134 471 -64
2019-12-06 21:58:28 GMT 41.864380 7.207159 39,025 134 470 0
2019-12-06 21:58:21 GMT 41.873749 7.194172 39,025 134 470 64
2019-12-06 21:58:17 GMT 41.879837 7.185808 39,025 133 471 64
2019-12-06 21:58:11 GMT 41.887985 7.174509 39,000 134 471 64
2019-12-06 21:58:06 GMT 41.895851 7.163597 39,000 133 472 64
2019-12-06 21:58:01 GMT 41.903484 7.153058 39,000 134 473 256
2019-12-06 21:57:58 GMT 41.909256 7.145073 38,975 134 473 320
2019-12-06 21:57:52 GMT 41.917171 7.134087 38,950 134 473 640
2019-12-06 21:57:48 GMT 41.923550 7.125273 38,950 134 473 704
2019-12-06 21:57:42 GMT 41.932709 7.112586 38,850 134 474 896
2019-12-06 21:57:38 GMT 41.939423 7.103300 38,800 134 474 768
2019-12-06 21:57:32 GMT 41.948872 7.090206 38,700 134 474 448
2019-12-06 21:57:27 GMT 41.954971 7.081774 38,675 134 474 320
2019-12-06 21:57:21 GMT 41.964706 7.068329 38,650 134 473 128
2019-12-06 21:57:18 GMT 41.969543 7.061590 38,625 134 471 192
2019-12-06 21:57:15 GMT 41.973495 7.056094 38,625 134 471 256
2019-12-06 21:57:10 GMT 41.982250 7.043961 38,600 134 470 448
2019-12-06 21:57:07 GMT 41.985882 7.038915 38,575 133 469 512
2019-12-06 21:57:04 GMT 41.991001 7.031825 38,525 133 469 704
2019-12-06 21:57:01 GMT 41.994354 7.027226 38,525 133 469 832
2019-12-06 21:56:58 GMT 41.999176 7.020513 38,450 133 469 768
2019-12-06 21:56:55 GMT 42.003990 7.013812 38,400 133 468 704
2019-12-06 21:56:52 GMT 42.008514 7.007530 38,400 133 468 704
2019-12-06 21:56:48 GMT 42.016327 6.996630 38,350 133 468 704
2019-12-06 21:56:45 GMT 42.019318 6.992423 38,300 133 468 768
2019-12-06 21:56:41 GMT 42.025314 6.984059 38,275 133 468 768
2019-12-06 21:56:35 GMT 42.038818 6.965207 38,150 133 468 960
2019-12-06 21:56:31 GMT 42.038818 6.965207 38,150 133 468 960
2019-12-06 21:56:26 GMT 42.047516 6.953068 38,050 133 468 896
2019-12-06 21:56:21 GMT 42.055012 6.942593 38,000 133 468 512
2019-12-06 21:56:17 GMT 42.062508 6.932118 37,925 133 467 384
2019-12-06 21:56:14 GMT 42.064316 6.929626 37,925 133 466 384
2019-12-06 21:56:11 GMT 42.080151 6.907526 37,900 133 466 576
2019-12-06 21:56:05 GMT 42.080151 6.907526 37,850 133 465 640
2019-12-06 21:56:02 GMT 42.084621 6.901266 37,825 133 464 576
2019-12-06 21:55:54 GMT 42.095654 6.885873 37,750 133 463 512
2019-12-06 21:55:51 GMT 42.098923 6.881312 37,675 133 463 1152
2019-12-06 21:55:44 GMT 42.110176 6.865561 36,800 133 468 1728
2019-12-06 21:55:39 GMT 42.117920 6.854782 36,800 133 468 1728
2019-12-06 21:55:36 GMT 42.122360 6.848540 37,500 133 463 1280
2019-12-06 21:55:33 GMT 42.127396 6.841486 37,425 133 463 1344
2019-12-06 21:55:30 GMT 42.130661 6.836945 37,375 133 463 1408
2019-12-06 21:55:26 GMT 42.140762 6.822759 37,275 133 464 1536
2019-12-06 21:55:19 GMT 42.147324 6.813631 37,100 133 466 1920
2019-12-06 21:55:14 GMT 42.155983 6.801495 36,925 133 468 1856
2019-12-06 21:55:10 GMT 42.160492 6.795169 36,825 133 469 1536
2019-12-06 21:55:06 GMT 42.167999 6.784619 36,700 133 470 1216
2019-12-06 21:55:03 GMT 42.170380 6.781249 36,675 133 471 1216
2019-12-06 21:55:00 GMT 42.174591 6.775381 36,575 133 471 1024
2019-12-06 21:54:53 GMT 42.191162 6.752097 36,425 133 471 960
2019-12-06 21:54:45 GMT 42.198715 6.741548 36,325 133 469 1088
2019-12-06 21:54:40 GMT 42.207096 6.729765 36,250 133 470 1280
2019-12-06 21:54:33 GMT 42.217026 6.715830 36,075 133 470 1408
2019-12-06 21:54:29 GMT 42.221809 6.709070 36,000 133 470 1408
2019-12-06 21:54:24 GMT 42.229305 6.698466 35,900 133 470 1216
2019-12-06 21:54:20 GMT 42.244061 6.677707 35,550 133 471 0
2019-12-06 21:54:14 GMT 42.248886 6.670948 35,650 133 471 832
2019-12-06 21:54:04 GMT 42.266327 6.646416 35,525 133 468 576
2019-12-06 21:54:00 GMT 42.266327 6.646416 35,400 133 466 1024
2019-12-06 21:53:54 GMT 42.275299 6.633826 35,450 133 466 1024
2019-12-06 21:53:49 GMT 42.281303 6.625395 35,325 133 466 1024
2019-12-06 21:53:42 GMT 42.293823 6.607829 35,225 133 465 640
2019-12-06 21:53:39 GMT 42.296806 6.603614 35,200 133 465 640
2019-12-06 21:53:33 GMT 42.306610 6.589862 35,150 133 463 1088
2019-12-06 21:53:29 GMT 42.314026 6.579375 35,050 133 463 1216
2019-12-06 21:53:24 GMT 42.319660 6.571485 34,975 133 463 1472
2019-12-06 21:53:19 GMT 42.327347 6.560586 34,875 133 464 1408
2019-12-06 21:53:13 GMT 42.342133 6.539674 34,650 133 464 1472
2019-12-06 21:53:09 GMT 42.342133 6.539674 34,525 133 465 1216
2019-12-06 21:53:03 GMT 42.350155 6.528370 34,450 133 464 1472
2019-12-06 21:52:59 GMT 42.356644 6.519137 34,350 133 465 1472
2019-12-06 21:52:51 GMT 42.369984 6.500265 33,875 133 464 1344
2019-12-06 21:52:47 GMT 42.375046 6.493170 34,100 133 464 1344
2019-12-06 21:52:43 GMT 42.381271 6.484368 34,000 133 464 1344
2019-12-06 21:52:38 GMT 42.387772 6.475130 33,875 133 464 1216
2019-12-06 21:52:32 GMT 42.395782 6.463831 33,775 133 464 1216
2019-12-06 21:52:27 GMT 42.403793 6.452533 33,650 133 463 1344
2019-12-06 21:52:20 GMT 42.415279 6.436136 33,275 133 464 1600
2019-12-06 21:52:12 GMT 42.425034 6.422320 33,325 133 463 1600
2019-12-06 21:52:09 GMT 42.432133 6.412247 33,125 133 464 1600
2019-12-06 21:52:06 GMT 42.434784 6.408415 33,125 133 464 1600
2019-12-06 21:52:02 GMT 42.440964 6.399599 33,050 133 464 1536
2019-12-06 21:51:56 GMT 42.449844 6.386989 32,825 133 464 1280
2019-12-06 21:51:51 GMT 42.457550 6.376031 32,775 133 464 1408
2019-12-06 21:51:45 GMT 42.465836 6.364278 32,625 133 464 1728
2019-12-06 21:51:42 GMT 42.470257 6.357954 32,450 133 464 1792
2019-12-06 21:51:38 GMT 42.481243 6.342369 32,375 133 465 1984
2019-12-06 21:51:31 GMT 42.487152 6.333930 32,250 133 466 2048
2019-12-06 21:51:28 GMT 42.491344 6.327997 31,975 133 468 1600
2019-12-06 21:51:24 GMT 42.497864 6.318672 31,950 133 468 1600
2019-12-06 21:51:21 GMT 42.501755 6.313206 31,875 133 468 1664
2019-12-06 21:51:14 GMT 42.511871 6.298724 31,700 133 469 2112
2019-12-06 21:51:11 GMT 42.516346 6.292356 31,575 133 469 1920
2019-12-06 21:51:02 GMT 42.529240 6.273960 31,275 133 471 1216
2019-12-06 21:50:58 GMT 42.535812 6.264579 31,225 133 469 896
2019-12-06 21:50:54 GMT 42.541809 6.256011 31,150 133 469 832
2019-12-06 21:50:51 GMT 42.546558 6.249241 31,100 133 468 960
2019-12-06 21:50:43 GMT 42.558475 6.232186 30,975 133 467 1408
2019-12-06 21:50:40 GMT 42.563232 6.225440 30,900 133 466 1472
2019-12-06 21:50:36 GMT 42.567413 6.219475 29,925 133 459 896
2019-12-06 21:50:31 GMT 42.576050 6.207213 30,700 133 466 896
2019-12-06 21:50:28 GMT 42.581657 6.199163 30,625 133 464 896
2019-12-06 21:50:23 GMT 42.588455 6.189455 30,450 133 462 1472
2019-12-06 21:50:20 GMT 42.592575 6.183555 30,500 133 462 1344
2019-12-06 21:50:12 GMT 42.603195 6.168449 30,325 133 462 1664
2019-12-06 21:50:06 GMT 42.612579 6.154965 29,925 133 459 896
2019-12-06 21:50:00 GMT 42.622578 6.140719 29,975 133 461 1280
2019-12-06 21:49:56 GMT 42.627823 6.133118 29,925 133 459 896
2019-12-06 21:49:50 GMT 42.636311 6.120982 29,775 133 459 704
2019-12-06 21:49:46 GMT 42.641850 6.112997 29,750 133 457 448
2019-12-06 21:49:41 GMT 42.649063 6.102586 29,700 133 455 640
2019-12-06 21:49:37 GMT 42.657120 6.090983 29,625 133 452 1216
2019-12-06 21:49:30 GMT 42.666000 6.078186 29,500 133 452 1536
2019-12-06 21:49:26 GMT 42.670029 6.072443 29,400 133 451 1600
2019-12-06 21:49:19 GMT 42.680630 6.057171 29,250 133 450 1600
2019-12-06 21:49:16 GMT 42.685455 6.050221 29,125 133 450 1536
2019-12-06 21:49:10 GMT 42.693741 6.038298 28,925 133 449 1536
2019-12-06 21:49:06 GMT 42.700333 6.028872 28,875 133 449 1536
2019-12-06 21:48:59 GMT 42.709442 6.015781 28,700 133 447 1472
2019-12-06 21:48:55 GMT 42.714844 6.007989 28,600 133 447 1408
2019-12-06 21:48:48 GMT 42.725601 5.992543 28,425 133 445 1216
2019-12-06 21:48:45 GMT 42.731232 5.984355 28,350 133 444 1280
2019-12-06 21:48:38 GMT 42.738281 5.974253 28,225 133 443 1472
2019-12-06 21:48:35 GMT 42.743088 5.967386 28,125 133 442 1408
2019-12-06 21:48:28 GMT 42.753433 5.952405 27,900 133 440 1472
2019-12-06 21:48:25 GMT 42.757904 5.945967 27,900 133 440 1472
2019-12-06 21:48:18 GMT 42.767349 5.932243 27,725 133 438 1600
2019-12-06 21:48:15 GMT 42.771240 5.926625 27,650 133 437 1664
2019-12-06 21:48:07 GMT 42.781494 5.911831 27,350 133 436 1664
2019-12-06 21:48:00 GMT 42.797009 5.889502 27,175 133 435 1984
2019-12-06 21:47:47 GMT 42.809391 5.871604 26,800 133 435 2112
2019-12-06 21:47:43 GMT 42.814590 5.864017 26,650 133 435 1984
2019-12-06 21:47:38 GMT 42.821774 5.853620 26,500 133 434 1792
2019-12-06 21:47:34 GMT 42.828369 5.844088 26,350 133 433 1408
2019-12-06 21:47:27 GMT 42.836838 5.831760 26,225 133 431 1088
2019-12-06 21:47:23 GMT 42.842010 5.824223 26,100 133 430 1216
2019-12-06 21:47:17 GMT 42.850983 5.811257 25,525 133 427 2176
2019-12-06 21:47:11 GMT 42.859360 5.799121 25,750 133 427 2368
2019-12-06 21:47:07 GMT 42.865540 5.790114 25,575 133 428 2560
2019-12-06 21:47:00 GMT 42.874512 5.777148 25,275 133 428 2432
2019-12-06 21:46:56 GMT 42.878567 5.771288 25,150 133 428 2368
2019-12-06 21:46:53 GMT 42.883987 5.763415 25,000 133 428 2432
2019-12-06 21:46:46 GMT 42.892673 5.750820 24,750 133 428 2048
2019-12-06 21:46:42 GMT 42.899185 5.741378 24,575 133 428 1600
2019-12-06 21:46:36 GMT 42.906174 5.731136 24,425 133 426 1344
2019-12-06 21:46:32 GMT 42.911316 5.723685 24,325 132 425 1216
2019-12-06 21:46:28 GMT 42.918835 5.712694 24,200 133 421 1472
2019-12-06 21:46:25 GMT 42.924934 5.703801 24,100 133 420 1664
2019-12-06 21:46:16 GMT 42.933964 5.690656 23,925 133 418 2112
2019-12-06 21:46:10 GMT 42.940567 5.681081 23,725 133 417 2304
2019-12-06 21:46:06 GMT 42.946907 5.671823 23,550 133 417 2368
2019-12-06 21:45:54 GMT 42.962448 5.649208 23,125 133 416 2112
2019-12-06 21:45:45 GMT 42.973442 5.633109 22,825 132 413 1728
2019-12-06 21:45:34 GMT 42.988266 5.611459 22,475 133 410 1984
2019-12-06 21:45:25 GMT 42.999390 5.595299 22,175 133 407 2112
2019-12-06 21:45:14 GMT 43.013988 5.573927 21,750 133 405 2304
2019-12-06 21:45:04 GMT 43.027023 5.554897 21,375 132 403 2048
2019-12-06 21:44:57 GMT 43.037170 5.539987 21,075 132 400 1856
2019-12-06 21:44:54 GMT 43.039215 5.537046 21,050 132 400 1984
2019-12-06 21:44:44 GMT 43.052532 5.517556 20,675 132 397 2880
2019-12-06 21:44:40 GMT 43.058308 5.509055 20,450 132 397 2944
2019-12-06 21:44:34 GMT 43.064823 5.499507 20,075 133 398 2752
2019-12-06 21:44:24 GMT 43.077667 5.480773 19,725 132 397 2432
2019-12-06 21:44:19 GMT 43.085403 5.469403 19,475 133 395 2176
2019-12-06 21:44:14 GMT 43.089684 5.463213 19,325 132 394 2176
2019-12-06 21:44:07 GMT 43.098587 5.450049 19,075 133 394 2240
2019-12-06 21:44:03 GMT 43.102798 5.443917 18,925 132 391 2496
2019-12-06 21:44:00 GMT 43.107513 5.437019 18,775 132 390 2624
2019-12-06 21:43:53 GMT 43.120514 5.417920 18,325 132 387 2432
2019-12-06 21:43:45 GMT 43.126144 5.409681 18,125 132 386 2368
2019-12-06 21:43:41 GMT 43.130768 5.402846 18,000 132 385 2304
2019-12-06 21:43:33 GMT 43.140423 5.388598 17,700 132 382 2304
2019-12-06 21:43:30 GMT 43.147408 5.378331 17,450 132 380 2304
2019-12-06 21:43:27 GMT 43.150955 5.373081 17,375 132 379 2368
2019-12-06 21:43:24 GMT 43.150955 5.373081 17,300 132 378 2368
2019-12-06 21:43:21 GMT 43.155029 5.367077 17,200 132 376 2560
2019-12-06 21:43:15 GMT 43.161652 5.357274 16,975 132 375 2816
2019-12-06 21:43:12 GMT 43.164963 5.352386 16,875 132 375 2944
2019-12-06 21:43:06 GMT 43.172287 5.341655 16,550 132 375 3328
2019-12-06 21:43:02 GMT 43.175804 5.336413 16,350 132 375 3456
2019-12-06 21:42:58 GMT 43.183113 5.325623 16,000 132 375 3584
2019-12-06 21:42:52 GMT 43.188309 5.317958 15,825 132 376 3520
2019-12-06 21:42:47 GMT 43.195450 5.307508 15,425 132 377 3136
2019-12-06 21:42:42 GMT 43.201126 5.299115 15,200 132 376 2816
2019-12-06 21:42:35 GMT 43.209412 5.286915 14,850 132 361 2752
2019-12-06 21:42:32 GMT 43.212486 5.282397 14,725 132 373 2304
2019-12-06 21:42:27 GMT 43.219749 5.271672 14,500 132 370 2112
2019-12-06 21:42:22 GMT 43.224380 5.264815 14,375 132 367 2112
2019-12-06 21:42:12 GMT 43.235641 5.248207 13,975 132 361 2688
2019-12-06 21:42:02 GMT 43.246536 5.232111 13,525 132 358 3008
2019-12-06 21:41:59 GMT 43.251034 5.225438 13,350 132 358 2816
2019-12-06 21:41:51 GMT 43.258621 5.214162 13,050 132 355 2240
2019-12-06 21:41:42 GMT 43.269047 5.198757 12,600 132 348 2752
2019-12-06 21:41:39 GMT 43.272766 5.193212 12,500 132 344 3008
2019-12-06 21:41:31 GMT 43.281666 5.179988 12,100 132 344 3008
2019-12-06 21:41:21 GMT 43.291901 5.164596 11,600 132 340 2880
2019-12-06 21:41:10 GMT 43.303253 5.147350 11,125 131 334 2048
2019-12-06 21:41:00 GMT 43.313042 5.132250 10,700 131 319 1344
2019-12-06 21:40:50 GMT 43.333755 5.100599 9,700 153 291 640
2019-12-06 21:40:40 GMT 43.333755 5.100599 10,150 135 301 2432
2019-12-06 21:40:30 GMT 43.343624 5.089090 9,750 151 292 768
2019-12-06 21:40:27 GMT 43.346416 5.086866 9,675 157 288 576
2019-12-06 21:40:17 GMT 43.359360 5.081569 9,475 176 270 704
2019-12-06 21:40:09 GMT 43.368484 5.081438 9,275 188 258 1024
2019-12-06 21:40:03 GMT 43.376358 5.083285 9,100 192 252 1408
2019-12-06 21:39:59 GMT 43.380356 5.084708 8,975 196 243 2688
2019-12-06 21:39:49 GMT 43.390686 5.088586 8,525 196 237 3072
2019-12-06 21:39:39 GMT 43.401863 5.092686 7,975 196 234 3648
2019-12-06 21:39:29 GMT 43.412933 5.096826 7,350 196 234 3328
2019-12-06 21:39:18 GMT 43.422951 5.100534 6,775 195 231 3392
2019-12-06 21:39:08 GMT 43.434307 5.104588 6,200 194 228 3648
2019-12-06 21:39:03 GMT 43.439243 5.106223 5,875 194 228 3776
2019-12-06 21:38:58 GMT 43.443993 5.107792 5,575 193 227 3904
2019-12-06 21:38:48 GMT 43.464336 5.115967 4,350 209 225 1472
2019-12-06 21:38:38 GMT 43.464336 5.115967 4,350 214 221 1280
2019-12-06 21:38:27 GMT 43.475601 5.138332 4,025 245 195 448
2019-12-06 21:38:17 GMT 43.475601 5.138332 3,825 264 178 1344
2019-12-06 21:38:14 GMT 43.475834 5.140097 3,825 264 178 1344
2019-12-06 21:38:06 GMT 43.475876 5.149650 3,600 279 167 1472
2019-12-06 21:37:57 GMT 43.473927 5.159127 3,375 297 153 1600
2019-12-06 21:37:46 GMT 43.470337 5.167471 3,125 311 142 1664
2019-12-06 21:37:36 GMT 43.465733 5.174364 2,825 314 135 2048
2019-12-06 21:37:26 GMT 43.461727 5.180250 2,475 314 131 2176
2019-12-06 21:37:16 GMT 43.457336 5.186633 2,100 314 130 2560
2019-12-06 21:37:06 GMT 43.452835 5.192936 1,650 315 132 2816
We lost coverage of the aircraft here for a total of 96 minutes
2019-12-06 20:00:42 GMT 43.468151 5.170179 400 133 140 -704
2019-12-06 20:00:32 GMT 43.472443 5.164021 525 133 141 -704
2019-12-06 20:00:25 GMT 43.476013 5.158975 600 133 144 -768
2019-12-06 20:00:14 GMT 43.480953 5.151934 750 133 149 -960
2019-12-06 20:00:04 GMT 43.485844 5.145002 900 133 155 -960
2019-12-06 19:59:53 GMT 43.491753 5.136566 1,075 134 166 -576
2019-12-06 19:59:44 GMT 43.496456 5.129896 1,175 133 176 -896
2019-12-06 19:59:33 GMT 43.502747 5.120843 1,350 133 183 -1088
2019-12-06 19:59:18 GMT 43.511539 5.108250 1,625 133 193 -1280
2019-12-06 19:59:08 GMT 43.518082 5.098870 1,825 133 194 -896
2019-12-06 19:58:58 GMT 43.524033 5.090438 1,975 133 198 -1088
2019-12-06 19:58:47 GMT 43.531231 5.080196 2,250 133 200 -1024
2019-12-06 19:58:37 GMT 43.537811 5.070829 2,325 133 202 -1088
2019-12-06 19:58:27 GMT 43.544174 5.061695 2,500 133 203 -1216
2019-12-06 19:58:17 GMT 43.551014 5.051814 2,725 133 201 -1280
2019-12-06 19:58:06 GMT 43.557346 5.042790 2,950 133 200 -1280
2019-12-06 19:57:56 GMT 43.564407 5.032696 3,175 133 199 -1152
2019-12-06 19:57:46 GMT 43.570175 5.024457 3,350 133 200 -960
2019-12-06 19:57:36 GMT 43.577271 5.014278 3,500 133 203 -832
2019-12-06 19:57:25 GMT 43.584869 5.003378 3,650 133 205 -768
2019-12-06 19:57:14 GMT 43.591747 4.993548 3,750 133 208 -128
2019-12-06 19:57:03 GMT 43.598923 4.983194 3,750 133 218 -64
2019-12-06 19:56:53 GMT 43.605835 4.973230 3,775 133 224 -64
2019-12-06 19:56:43 GMT 43.613255 4.962616 3,775 133 232 -64
2019-12-06 19:56:33 GMT 43.620621 4.951960 3,775 133 242 -64
2019-12-06 19:56:23 GMT 43.629135 4.939696 3,775 133 255 0
2019-12-06 19:56:12 GMT 43.637928 4.927107 3,775 134 266 0
2019-12-06 19:56:02 GMT 43.646255 4.915296 3,775 134 274 0
2019-12-06 19:55:52 GMT 43.655663 4.901995 3,775 132 274 128
2019-12-06 19:55:42 GMT 43.663696 4.889299 3,775 126 275 320
2019-12-06 19:55:31 GMT 43.671112 4.873267 3,775 116 275 -64
2019-12-06 19:55:22 GMT 43.676567 4.858965 3,800 125 274 -832
2019-12-06 19:55:11 GMT 43.685669 4.843118 3,900 129 273 -1088
2019-12-06 19:55:01 GMT 43.694046 4.829002 4,100 129 275 -1472
2019-12-06 19:54:50 GMT 43.701843 4.815935 4,350 129 277 -1664
2019-12-06 19:54:40 GMT 43.710434 4.801345 4,650 129 275 -2112
2019-12-06 19:54:30 GMT 43.718353 4.787995 5,025 129 274 -1984
2019-12-06 19:54:20 GMT 43.726517 4.774214 5,325 129 273 -1728
2019-12-06 19:54:10 GMT 43.734383 4.760938 5,625 129 274 -1728
2019-12-06 19:53:59 GMT 43.743073 4.746285 5,925 129 273 -1856
2019-12-06 19:53:49 GMT 43.751560 4.731903 6,225 129 275 -1408
2019-12-06 19:53:39 GMT 43.759369 4.718820 6,425 129 280 -1024
2019-12-06 19:53:29 GMT 43.768250 4.703745 6,600 129 287 -768
2019-12-06 19:53:19 GMT 43.776051 4.690508 6,700 129 295 -832
2019-12-06 19:53:08 GMT 43.785454 4.674617 6,850 129 304 -832
2019-12-06 19:52:58 GMT 43.794205 4.659773 7,000 129 310 -960
2019-12-06 19:52:48 GMT 43.803745 4.643555 7,150 129 319 -960
2019-12-06 19:52:38 GMT 43.813568 4.626944 7,300 129 329 -960
2019-12-06 19:52:28 GMT 43.823299 4.610465 7,475 129 337 -1280
2019-12-06 19:52:17 GMT 43.834427 4.591566 7,775 129 342 -2240
2019-12-06 19:52:07 GMT 43.843643 4.575806 8,125 129 346 -2176
2019-12-06 19:51:57 GMT 43.854397 4.557561 8,500 129 350 -1792
2019-12-06 19:51:47 GMT 43.863876 4.541441 8,775 129 356 -1920
2019-12-06 19:51:37 GMT 43.875183 4.522215 9,100 129 363 -1472
2019-12-06 19:51:26 GMT 43.886719 4.502606 9,325 129 373 -1152
2019-12-06 19:51:16 GMT 43.897247 4.484721 9,525 128 381 -1216
2019-12-06 19:51:06 GMT 43.909187 4.464308 9,750 129 391 -2112
2019-12-06 19:50:56 GMT 43.920406 4.445147 10,200 129 395 -3072
2019-12-06 19:50:45 GMT 43.932632 4.424297 10,725 128 396 -3008
2019-12-06 19:50:35 GMT 43.943527 4.405709 11,225 128 399 -2816
2019-12-06 19:50:25 GMT 43.955833 4.384591 11,700 128 402 -2944
2019-12-06 19:50:15 GMT 43.968246 4.363297 12,200 128 404 -2880
2019-12-06 19:50:05 GMT 43.979782 4.343496 12,700 128 406 -2944
2019-12-06 19:49:54 GMT 44.004089 4.301722 13,725 128 417 -2496
2019-12-06 19:49:44 GMT 44.004089 4.301722 13,725 128 417 -2496
2019-12-06 19:49:33 GMT 44.018398 4.277082 14,025 128 422 -2048
2019-12-06 19:49:24 GMT 44.029015 4.258902 14,350 128 428 -2304
2019-12-06 19:49:14 GMT 44.041718 4.237082 14,775 128 431 -2944
2019-12-06 19:49:01 GMT 44.058575 4.208091 15,275 128 434 -3136
2019-12-06 19:48:53 GMT 44.067417 4.192919 15,800 128 436 -3008
2019-12-06 19:48:43 GMT 44.081635 4.168353 16,300 128 440 -2816
2019-12-06 19:48:33 GMT 44.093674 4.147594 16,800 128 443 -3392
2019-12-06 19:48:21 GMT 44.109364 4.120462 17,475 128 449 -2688
2019-12-06 19:48:11 GMT 44.134594 4.076712 18,325 128 453 -3264
2019-12-06 19:48:02 GMT 44.134594 4.076712 18,425 128 453 -3136
2019-12-06 19:47:52 GMT 44.147507 4.054338 19,050 128 458 -3520
2019-12-06 19:47:40 GMT 44.162292 4.028533 19,500 128 456 -4864
2019-12-06 19:47:30 GMT 44.177032 4.002856 23,100 128 455 -6144
2019-12-06 19:47:21 GMT 44.186733 3.985944 21,350 128 455 -6080
2019-12-06 19:47:11 GMT 44.202885 3.957959 23,100 128 474 -3328
2019-12-06 19:47:00 GMT 44.215302 3.936506 23,100 128 473 -3328
2019-12-06 19:46:50 GMT 44.230179 3.910675 23,750 128 485 -3840
2019-12-06 19:46:39 GMT 44.245575 3.883801 24,450 128 485 -5312
2019-12-06 19:46:29 GMT 44.264374 3.851362 25,700 129 481 -4800
2019-12-06 19:46:18 GMT 44.276505 3.831613 26,325 131 477 -5312
2019-12-06 19:46:09 GMT 44.289566 3.811720 27,175 134 470 -4608
2019-12-06 19:45:59 GMT 44.305069 3.789564 27,950 134 470 -4160
2019-12-06 19:45:49 GMT 44.319855 3.769095 28,675 136 468 -5440
2019-12-06 19:45:37 GMT 44.337982 3.746076 29,900 142 460 -4672
2019-12-06 19:45:33 GMT 44.344803 3.737967 30,300 140 460 -6144
2019-12-06 19:45:29 GMT 44.352356 3.729335 30,875 141 459 -5248
2019-12-06 19:45:24 GMT 44.358994 3.722011 31,200 143 460 -4608
2019-12-06 19:45:19 GMT 44.367123 3.713312 31,600 143 460 -4608
2019-12-06 19:45:13 GMT 44.378082 3.702000 32,050 143 465 -3648
2019-12-06 19:45:07 GMT 44.389160 3.690687 32,725 143 469 -3200
2019-12-06 19:45:01 GMT 44.398918 3.680755 33,875 143 471 -3200
2019-12-06 19:44:58 GMT 44.403854 3.675711 32,975 143 471 -3200
2019-12-06 19:44:50 GMT 44.416840 3.662400 33,350 143 472 -3200
2019-12-06 19:44:47 GMT 44.423496 3.655567 33,550 143 472 -3136
2019-12-06 19:44:43 GMT 44.429829 3.649069 33,725 143 472 -2880
2019-12-06 19:44:37 GMT 44.442078 3.636344 34,050 143 473 -2752
2019-12-06 19:44:30 GMT 44.451569 3.626493 34,350 143 473 -3072
2019-12-06 19:44:27 GMT 44.458271 3.619526 34,525 143 473 -3200
2019-12-06 19:44:20 GMT 44.471214 3.606061 34,975 143 475 -2240
2019-12-06 19:44:16 GMT 44.478241 3.598742 35,125 143 473 -2496
2019-12-06 19:44:07 GMT 44.513672 3.561271 35,900 142 476 -3200
2019-12-06 19:43:57 GMT 44.513672 3.561271 36,075 142 474 -4416
2019-12-06 19:43:50 GMT 44.524796 3.549500 36,600 143 468 -5120
2019-12-06 19:43:46 GMT 44.528595 3.545510 37,750 148 458 -4224
2019-12-06 19:43:41 GMT 44.539085 3.535052 37,350 148 458 -4224
2019-12-06 19:43:34 GMT 44.553131 3.522818 37,875 152 455 -3264
2019-12-06 19:43:31 GMT 44.559803 3.517769 38,075 152 454 -3136
2019-12-06 19:43:26 GMT 44.567715 3.512276 38,400 156 454 -2624
2019-12-06 19:43:22 GMT 44.575012 3.507778 38,475 158 453 -2304
2019-12-06 19:43:18 GMT 44.581680 3.504170 38,600 160 453 -2048
2019-12-06 19:43:10 GMT 44.598255 3.495997 38,825 161 455 -768
2019-12-06 19:43:04 GMT 44.610592 3.490035 38,950 161 458 -64
2019-12-06 19:43:00 GMT 44.616577 3.487178 38,975 161 457 -128
2019-12-06 19:42:55 GMT 44.627380 3.482012 39,000 161 458 64
2019-12-06 19:42:49 GMT 44.638229 3.476780 39,025 161 458 -64
2019-12-06 19:42:45 GMT 44.648670 3.471814 39,025 161 459 0
2019-12-06 19:42:41 GMT 44.661892 3.465450 39,025 161 459 -128
2019-12-06 19:42:34 GMT 44.668716 3.462132 39,050 161 459 0
2019-12-06 19:42:28 GMT 44.683182 3.455200 39,050 161 459 -64
2019-12-06 19:42:24 GMT 44.689636 3.452127 39,050 161 459 0
2019-12-06 19:42:17 GMT 44.706070 3.444214 39,050 161 459 0
2019-12-06 19:42:13 GMT 44.713303 3.440748 39,050 161 459 0
2019-12-06 19:42:10 GMT 44.719337 3.437850 39,050 161 459 64
2019-12-06 19:42:06 GMT 44.728180 3.433562 39,050 161 460 64
2019-12-06 19:42:02 GMT 44.733032 3.431266 39,050 161 461 0
2019-12-06 19:41:59 GMT 44.739449 3.428136 39,050 161 461 0
2019-12-06 19:41:52 GMT 44.753998 3.421195 39,050 161 462 0
2019-12-06 19:41:48 GMT 44.760860 3.417887 39,050 161 462 0
2019-12-06 19:41:42 GMT 44.773773 3.411647 39,050 161 462 64
2019-12-06 19:41:38 GMT 44.781067 3.408173 39,050 161 462 64
2019-12-06 19:41:34 GMT 44.797623 3.400203 39,050 161 462 64
2019-12-06 19:41:28 GMT 44.803253 3.397457 39,050 161 462 64
2019-12-06 19:41:21 GMT 44.818630 3.390086 39,025 161 462 128
2019-12-06 19:41:18 GMT 44.821472 3.388694 39,025 161 462 64
2019-12-06 19:41:13 GMT 44.831543 3.383854 39,025 161 462 64
2019-12-06 19:41:10 GMT 44.839233 3.380127 39,025 161 462 128
2019-12-06 19:41:06 GMT 44.846516 3.376621 39,025 161 462 128
2019-12-06 19:41:03 GMT 44.852554 3.373718 39,000 161 461 128
2019-12-06 19:41:00 GMT 44.859039 3.370592 39,000 161 461 128
2019-12-06 19:40:57 GMT 44.863461 3.368448 39,000 161 461 128
2019-12-06 19:40:54 GMT 44.876358 3.362218 39,000 161 461 64
2019-12-06 19:40:48 GMT 44.884415 3.358285 39,000 161 461 -64
2019-12-06 19:40:43 GMT 44.894886 3.353242 39,000 160 460 0
2019-12-06 19:40:39 GMT 44.901718 3.349915 38,975 161 458 0
2019-12-06 19:40:36 GMT 44.906525 3.347560 39,000 161 458 0
2019-12-06 19:40:31 GMT 44.915771 3.343113 39,000 161 457 0
2019-12-06 19:40:28 GMT 44.923748 3.339241 39,000 161 457 0
2019-12-06 19:40:24 GMT 44.933350 3.334612 39,000 161 456 0
2019-12-06 19:40:21 GMT 44.936554 3.333108 39,000 161 455 -64
2019-12-06 19:40:17 GMT 44.946095 3.328455 39,000 160 450 0
2019-12-06 19:40:12 GMT 44.954052 3.324637 39,000 161 454 0
2019-12-06 19:40:07 GMT 44.964386 3.319637 39,000 161 453 -64
2019-12-06 19:40:04 GMT 44.973091 3.315392 39,000 161 453 -64
2019-12-06 19:39:56 GMT 44.987759 3.308292 39,000 160 450 0
2019-12-06 19:39:51 GMT 44.998032 3.303353 39,000 161 451 0
2019-12-06 19:39:48 GMT 45.004349 3.300280 39,000 161 451 0
2019-12-06 19:39:44 GMT 45.010254 3.297403 39,000 161 451 0
2019-12-06 19:39:41 GMT 45.015408 3.294961 39,000 161 451 0
2019-12-06 19:39:36 GMT 45.026024 3.289802 39,050 160 451 192
2019-12-06 19:39:33 GMT 45.032726 3.286520 39,000 160 450 0
2019-12-06 19:39:30 GMT 45.041012 3.282500 39,000 160 450 0
2019-12-06 19:39:25 GMT 45.048508 3.278883 39,000 160 450 0
2019-12-06 19:39:21 GMT 45.055939 3.275234 39,000 160 450 0
2019-12-06 19:39:17 GMT 45.072483 3.267227 39,000 161 450 -64
2019-12-06 19:39:13 GMT 45.072483 3.267227 39,000 161 450 0
2019-12-06 19:39:10 GMT 45.077957 3.264574 39,000 161 450 0
2019-12-06 19:39:04 GMT 45.089008 3.259188 39,000 160 450 0
2019-12-06 19:39:00 GMT 45.097248 3.255236 39,000 160 450 -64
2019-12-06 19:38:54 GMT 45.107895 3.250057 39,025 160 450 -128
2019-12-06 19:38:50 GMT 45.124420 3.241948 39,050 160 451 192
2019-12-06 19:38:46 GMT 45.124420 3.241948 39,050 160 450 128
2019-12-06 19:38:42 GMT 45.132256 3.238086 39,050 160 450 128
2019-12-06 19:38:39 GMT 45.138538 3.235005 39,050 160 450 128
2019-12-06 19:38:36 GMT 45.144871 3.231923 38,975 160 451 192
2019-12-06 19:38:32 GMT 45.152756 3.228084 39,050 160 450 128
2019-12-06 19:38:29 GMT 45.157066 3.225961 39,025 160 451 192
2019-12-06 19:38:26 GMT 45.163773 3.222679 39,025 160 451 192
2019-12-06 19:38:22 GMT 45.172058 3.218592 39,025 160 451 192
2019-12-06 19:38:19 GMT 45.177551 3.215913 39,000 160 451 192
2019-12-06 19:38:15 GMT 45.187042 3.211278 39,000 160 451 192
2019-12-06 19:38:12 GMT 45.198486 3.205654 38,975 160 451 192
2019-12-06 19:38:08 GMT 45.205200 3.202381 38,975 160 451 192
2019-12-06 19:38:05 GMT 45.205200 3.202381 38,975 160 451 192
2019-12-06 19:38:01 GMT 45.212696 3.198696 38,975 160 452 64
2019-12-06 19:37:58 GMT 45.219402 3.195414 38,975 160 452 64
2019-12-06 19:37:53 GMT 45.229706 3.190417 38,975 161 452 0
2019-12-06 19:37:50 GMT 45.235600 3.187509 38,975 161 451 0
2019-12-06 19:37:47 GMT 45.239182 3.185774 38,975 161 451 0
2019-12-06 19:37:44 GMT 45.245865 3.182504 38,975 161 451 0
2019-12-06 19:37:41 GMT 45.252182 3.179430 38,975 160 450 -64
2019-12-06 19:37:38 GMT 45.266743 3.172302 38,975 160 450 -64
2019-12-06 19:37:34 GMT 45.266743 3.172302 38,975 160 450 0
2019-12-06 19:37:29 GMT 45.276611 3.167479 38,975 160 449 -64
2019-12-06 19:37:26 GMT 45.284061 3.163795 38,975 160 450 -64
2019-12-06 19:37:19 GMT 45.296265 3.157850 38,975 160 449 0
2019-12-06 19:37:16 GMT 45.302124 3.154973 38,975 160 448 -64
2019-12-06 19:37:12 GMT 45.311142 3.150526 38,975 160 448 -64
2019-12-06 19:37:09 GMT 45.317020 3.147650 38,975 160 448 0
2019-12-06 19:37:05 GMT 45.325260 3.143631 38,975 160 448 64
2019-12-06 19:37:02 GMT 45.331127 3.140750 38,975 160 447 0
2019-12-06 19:36:59 GMT 45.342857 3.134989 38,975 160 447 0
2019-12-06 19:36:55 GMT 45.351097 3.130903 38,975 160 447 -64
2019-12-06 19:36:51 GMT 45.351097 3.130903 38,975 160 447 -64
2019-12-06 19:36:48 GMT 45.357334 3.127821 38,975 160 447 -64
2019-12-06 19:36:45 GMT 45.363602 3.124760 38,975 160 446 0
2019-12-06 19:36:41 GMT 45.371796 3.120771 38,975 160 446 0
2019-12-06 19:36:37 GMT 45.378796 3.117304 38,975 160 446 0
2019-12-06 19:36:34 GMT 45.383469 3.115016 38,975 160 446 0
2019-12-06 19:36:31 GMT 45.389328 3.112139 38,975 160 446 0
2019-12-06 19:36:28 GMT 45.395554 3.109064 38,975 160 445 0
2019-12-06 19:36:25 GMT 45.401413 3.106188 38,975 160 446 0
2019-12-06 19:36:22 GMT 45.406868 3.103504 38,975 160 445 0
2019-12-06 19:36:16 GMT 45.420460 3.096805 38,975 160 445 0
2019-12-06 19:36:12 GMT 45.428280 3.092986 38,975 160 445 0
2019-12-06 19:36:08 GMT 45.434101 3.090106 38,975 160 445 0
2019-12-06 19:36:04 GMT 45.448483 3.083005 38,975 160 445 0
2019-12-06 19:35:57 GMT 45.457420 3.078584 38,975 160 445 0
2019-12-06 19:35:54 GMT 45.462448 3.076105 38,975 160 445 64
2019-12-06 19:35:51 GMT 45.467514 3.073556 38,975 160 445 0
2019-12-06 19:35:48 GMT 45.478775 3.067998 38,975 160 445 0
2019-12-06 19:35:42 GMT 45.495083 3.059960 38,975 160 444 0
2019-12-06 19:35:37 GMT 45.495083 3.059960 38,975 160 444 0
2019-12-06 19:35:33 GMT 45.502853 3.056096 38,975 160 444 0
2019-12-06 19:35:30 GMT 45.509094 3.053060 38,975 160 444 64
2019-12-06 19:35:27 GMT 45.515671 3.049818 38,975 160 444 0
2019-12-06 19:35:24 GMT 45.519943 3.047701 38,975 160 444 64
2019-12-06 19:35:21 GMT 45.533936 3.040793 38,950 160 444 0
2019-12-06 19:35:17 GMT 45.533936 3.040793 38,975 160 444 -64
2019-12-06 19:35:13 GMT 45.540527 3.037524 38,975 160 445 0
2019-12-06 19:35:10 GMT 45.547501 3.034081 38,975 160 445 -64
2019-12-06 19:35:06 GMT 45.561493 3.027135 38,975 160 445 -128
2019-12-06 19:35:03 GMT 45.561493 3.027135 38,975 160 445 -128
2019-12-06 19:35:00 GMT 45.573151 3.021378 39,000 160 444 -64
2019-12-06 19:34:57 GMT 45.573151 3.021378 39,000 160 444 -64
2019-12-06 19:34:54 GMT 45.580135 3.017876 39,000 160 444 -64
2019-12-06 19:34:51 GMT 45.584793 3.015546 39,000 160 444 -64
2019-12-06 19:34:47 GMT 45.592564 3.011696 39,000 160 444 0
2019-12-06 19:34:44 GMT 45.598011 3.009018 39,000 160 445 -64
2019-12-06 19:34:41 GMT 45.606537 3.004761 39,000 160 445 0
2019-12-06 19:34:36 GMT 45.612762 3.001679 39,000 160 445 0
2019-12-06 19:34:33 GMT 45.617432 2.999335 39,025 160 445 0
2019-12-06 19:34:30 GMT 45.623661 2.996246 39,000 160 445 64
2019-12-06 19:34:26 GMT 45.632599 2.991852 39,000 160 445 64
2019-12-06 19:34:23 GMT 45.639587 2.988348 39,000 160 445 64
2019-12-06 19:34:20 GMT 45.644653 2.985878 39,000 160 447 0
2019-12-06 19:34:16 GMT 45.653591 2.981415 39,000 160 446 64
2019-12-06 19:34:13 GMT 45.659458 2.978531 39,000 160 446 64
2019-12-06 19:34:10 GMT 45.663345 2.976558 39,000 160 446 0
2019-12-06 19:34:06 GMT 45.671539 2.972472 39,000 160 447 0
2019-12-06 19:34:02 GMT 45.685993 2.965279 39,000 160 447 -64
2019-12-06 19:33:59 GMT 45.685993 2.965279 39,000 160 447 -64
2019-12-06 19:33:55 GMT 45.692642 2.962021 39,000 160 448 -64
2019-12-06 19:33:52 GMT 45.699326 2.958672 39,025 160 449 0
2019-12-06 19:33:49 GMT 45.706741 2.954987 39,025 160 449 0
2019-12-06 19:33:45 GMT 45.711044 2.952844 39,025 160 449 0
2019-12-06 19:33:42 GMT 45.718861 2.948936 39,050 160 450 64
2019-12-06 19:33:39 GMT 45.725517 2.945641 39,025 160 450 0
2019-12-06 19:33:36 GMT 45.738457 2.939117 39,025 160 450 -64
2019-12-06 19:33:33 GMT 45.738457 2.939117 39,025 160 450 0
2019-12-06 19:33:29 GMT 45.747536 2.934654 39,025 160 450 0
2019-12-06 19:33:26 GMT 45.753021 2.931943 39,050 160 450 0
2019-12-06 19:33:21 GMT 45.758148 2.929397 39,025 160 450 0
2019-12-06 19:33:18 GMT 45.766808 2.925110 39,050 160 450 0
2019-12-06 19:33:15 GMT 45.771515 2.922698 39,025 160 450 64
2019-12-06 19:33:11 GMT 45.779377 2.918793 39,025 160 452 64
2019-12-06 19:33:08 GMT 45.786499 2.915291 39,025 160 452 64
2019-12-06 19:33:05 GMT 45.792023 2.912516 39,025 160 452 64
2019-12-06 19:33:01 GMT 45.800308 2.908429 39,025 160 453 64
2019-12-06 19:32:58 GMT 45.807819 2.904648 39,025 160 453 128
2019-12-06 19:32:55 GMT 45.810986 2.903069 39,025 160 453 128
2019-12-06 19:32:51 GMT 45.818893 2.899185 39,025 160 454 0
2019-12-06 19:32:48 GMT 45.824020 2.896614 39,025 160 454 -64
2019-12-06 19:32:45 GMT 45.831562 2.892838 39,025 160 454 0
2019-12-06 19:32:41 GMT 45.839893 2.888649 39,025 160 454 0
2019-12-06 19:32:38 GMT 45.844643 2.886314 39,025 160 454 64
2019-12-06 19:32:35 GMT 45.850616 2.883308 39,025 160 454 64
2019-12-06 19:32:30 GMT 45.862106 2.877547 39,025 160 454 0
2019-12-06 19:32:25 GMT 45.870438 2.873327 39,025 160 454 0
2019-12-06 19:32:22 GMT 45.878349 2.869354 39,025 160 454 0
2019-12-06 19:32:15 GMT 45.890636 2.863174 39,025 160 454 0
2019-12-06 19:32:12 GMT 45.895798 2.860599 39,025 160 454 0
2019-12-06 19:32:09 GMT 45.902184 2.857407 39,025 160 454 0
2019-12-06 19:32:04 GMT 45.912098 2.852463 39,025 160 454 0
2019-12-06 19:32:01 GMT 45.918045 2.849478 39,025 160 454 0
2019-12-06 19:31:58 GMT 45.931931 2.842506 39,050 160 454 0
2019-12-06 19:31:55 GMT 45.931931 2.842506 39,025 160 454 64
2019-12-06 19:31:52 GMT 45.937866 2.839497 39,025 160 454 64
2019-12-06 19:31:44 GMT 45.951736 2.832463 39,025 160 455 128
2019-12-06 19:31:40 GMT 45.960068 2.828243 39,025 160 455 192
2019-12-06 19:31:34 GMT 45.972336 2.822013 39,000 160 456 192
2019-12-06 19:31:30 GMT 45.981087 2.817581 39,000 160 456 128
2019-12-06 19:31:22 GMT 45.995380 2.810303 39,000 160 456 -64
2019-12-06 19:31:19 GMT 46.000546 2.807762 39,000 160 456 0
2019-12-06 19:31:14 GMT 46.012527 2.801715 39,000 160 455 0
2019-12-06 19:31:11 GMT 46.017262 2.799316 39,000 160 455 64
2019-12-06 19:31:08 GMT 46.024017 2.795954 39,000 160 456 0
2019-12-06 19:31:03 GMT 46.034729 2.790460 39,000 160 455 64
2019-12-06 19:31:00 GMT 46.038712 2.788451 39,000 160 455 0
2019-12-06 19:30:53 GMT 46.052582 2.781350 39,000 160 456 0
2019-12-06 19:30:49 GMT 46.061737 2.776727 39,000 160 455 -64
2019-12-06 19:30:43 GMT 46.074417 2.770363 39,000 160 455 0
2019-12-06 19:30:40 GMT 46.079178 2.767952 39,000 160 454 0
2019-12-06 19:30:33 GMT 46.092674 2.761208 39,000 160 454 0
2019-12-06 19:30:30 GMT 46.108521 2.753214 39,000 160 454 0
2019-12-06 19:30:21 GMT 46.124748 2.745071 39,000 160 453 0
2019-12-06 19:30:11 GMT 46.144547 2.735060 39,000 160 453 64
2019-12-06 19:30:00 GMT 46.159973 2.727289 39,000 160 453 64
2019-12-06 19:29:50 GMT 46.180161 2.717374 39,000 162 452 0
2019-12-06 19:29:47 GMT 46.182953 2.716035 39,000 162 452 0
2019-12-06 19:29:41 GMT 46.203377 2.707306 39,000 164 450 0
2019-12-06 19:29:37 GMT 46.203377 2.707306 39,000 164 450 0
2019-12-06 19:29:31 GMT 46.215408 2.702704 39,000 166 449 64
2019-12-06 19:29:27 GMT 46.225525 2.699220 39,000 166 448 64
2019-12-06 19:29:21 GMT 46.234798 2.696182 39,000 167 447 0
2019-12-06 19:29:17 GMT 46.244156 2.693367 39,000 168 448 -64
2019-12-06 19:29:09 GMT 46.261986 2.688148 39,000 168 447 0
2019-12-06 19:29:05 GMT 46.269241 2.686023 39,025 168 446 0
2019-12-06 19:29:01 GMT 46.285858 2.681066 39,025 168 447 -64
2019-12-06 19:28:56 GMT 46.285858 2.681066 39,025 168 447 -64
2019-12-06 19:28:51 GMT 46.297176 2.677711 39,025 168 447 0
2019-12-06 19:28:47 GMT 46.304031 2.675707 39,025 168 447 0
2019-12-06 19:28:44 GMT 46.311329 2.673523 39,025 168 446 64
2019-12-06 19:28:39 GMT 46.327065 2.668785 39,025 168 446 64
2019-12-06 19:28:33 GMT 46.333557 2.666864 39,025 168 446 64
2019-12-06 19:28:30 GMT 46.344849 2.663498 39,000 168 447 64
2019-12-06 19:28:23 GMT 46.352947 2.661095 39,000 168 447 64
2019-12-06 19:28:20 GMT 46.360199 2.658892 39,000 168 446 64
2019-12-06 19:28:17 GMT 46.365463 2.657352 39,000 168 446 0
2019-12-06 19:28:13 GMT 46.375992 2.654297 39,000 168 446 64
2019-12-06 19:28:10 GMT 46.379669 2.653198 39,000 168 446 64
2019-12-06 19:28:04 GMT 46.399872 2.647224 39,000 168 448 -64
2019-12-06 19:28:00 GMT 46.399872 2.647224 38,975 168 448 -64
2019-12-06 19:27:57 GMT 46.407211 2.645092 39,000 168 448 -128
2019-12-06 19:27:54 GMT 46.413300 2.643284 39,000 168 447 -64
2019-12-06 19:27:51 GMT 46.418587 2.641800 39,025 168 447 64
2019-12-06 19:27:48 GMT 46.424267 2.640083 39,025 168 447 0
2019-12-06 19:27:45 GMT 46.431564 2.637992 39,025 168 448 128
2019-12-06 19:27:42 GMT 46.436417 2.636518 39,000 168 448 128
2019-12-06 19:27:39 GMT 46.442886 2.634590 39,000 168 448 64
2019-12-06 19:27:36 GMT 46.448181 2.633034 39,000 168 449 64
2019-12-06 19:27:33 GMT 46.455872 2.630690 39,000 168 449 0
2019-12-06 19:27:29 GMT 46.469700 2.626625 39,000 168 449 -128
2019-12-06 19:27:23 GMT 46.475006 2.625063 39,000 168 449 -64
2019-12-06 19:27:20 GMT 46.481918 2.622986 39,000 168 449 0
2019-12-06 19:27:15 GMT 46.490433 2.620440 39,000 168 448 64
2019-12-06 19:27:12 GMT 46.497757 2.618297 39,000 168 447 128
2019-12-06 19:27:09 GMT 46.503407 2.616669 39,000 168 447 64
2019-12-06 19:27:06 GMT 46.511131 2.614403 39,000 168 447 0
2019-12-06 19:27:03 GMT 46.523281 2.610764 39,000 168 448 0
2019-12-06 19:26:59 GMT 46.529755 2.608851 39,000 168 447 0
2019-12-06 19:26:56 GMT 46.529755 2.608851 39,000 168 447 0
2019-12-06 19:26:52 GMT 46.537853 2.606438 39,000 168 447 0
2019-12-06 19:26:49 GMT 46.543945 2.604631 39,000 168 447 0
2019-12-06 19:26:46 GMT 46.550812 2.602554 39,000 168 447 -64
2019-12-06 19:26:43 GMT 46.560928 2.599539 39,000 168 447 -64
2019-12-06 19:26:37 GMT 46.570221 2.596726 39,000 168 447 -64
2019-12-06 19:26:34 GMT 46.575897 2.595051 39,025 168 447 64
2019-12-06 19:26:30 GMT 46.582352 2.593108 39,025 168 447 0
2019-12-06 19:26:27 GMT 46.589218 2.591032 39,000 168 447 0
2019-12-06 19:26:23 GMT 46.607849 2.585405 39,000 168 448 64
2019-12-06 19:26:18 GMT 46.607849 2.585405 39,000 168 448 64
2019-12-06 19:26:15 GMT 46.613525 2.583663 39,000 168 450 -128
2019-12-06 19:26:12 GMT 46.619614 2.581787 39,000 168 450 -128
2019-12-06 19:26:08 GMT 46.625744 2.580002 39,000 168 451 -64
2019-12-06 19:26:04 GMT 46.635941 2.576912 39,025 168 451 256
2019-12-06 19:26:00 GMT 46.642914 2.574820 39,025 168 451 256
2019-12-06 19:25:56 GMT 46.661308 2.569221 38,975 168 454 64
2019-12-06 19:25:52 GMT 46.661308 2.569221 38,975 168 453 128
2019-12-06 19:25:47 GMT 46.672062 2.565994 38,975 168 456 64
2019-12-06 19:25:44 GMT 46.676579 2.564690 38,975 168 456 0
2019-12-06 19:25:39 GMT 46.689381 2.560844 39,000 168 455 -64
2019-12-06 19:25:36 GMT 46.693085 2.559747 39,000 168 454 64
2019-12-06 19:25:31 GMT 46.710796 2.554459 39,000 168 454 -64
2019-12-06 19:25:28 GMT 46.715744 2.552981 39,000 168 454 64
2019-12-06 19:25:25 GMT 46.723938 2.550503 39,000 168 453 128
2019-12-06 19:25:21 GMT 46.723938 2.550503 39,000 168 454 64
2019-12-06 19:25:17 GMT 46.731354 2.548225 39,000 168 454 -64
2019-12-06 19:25:14 GMT 46.740784 2.545412 39,000 168 454 -64
2019-12-06 19:25:10 GMT 46.746548 2.543678 39,000 168 454 -64
2019-12-06 19:25:05 GMT 46.757671 2.540314 39,000 168 454 0
2019-12-06 19:25:01 GMT 46.766693 2.537574 39,000 168 454 64
2019-12-06 19:24:55 GMT 46.776535 2.534626 39,000 168 454 64
2019-12-06 19:24:52 GMT 46.783138 2.532623 39,000 168 453 128
2019-12-06 19:24:45 GMT 46.798313 2.528023 39,000 168 454 64
2019-12-06 19:24:40 GMT 46.808601 2.524933 39,000 168 453 -64
2019-12-06 19:24:33 GMT 46.820938 2.521225 39,000 168 453 0
2019-12-06 19:24:30 GMT 46.828308 2.519018 39,000 168 453 0
2019-12-06 19:24:24 GMT 46.840210 2.515400 39,000 168 453 64
2019-12-06 19:24:20 GMT 46.855385 2.510788 39,000 168 453 0
2019-12-06 19:24:13 GMT 46.864014 2.508098 39,000 168 453 64
2019-12-06 19:24:10 GMT 46.870144 2.506221 39,000 168 453 -64
2019-12-06 19:24:06 GMT 46.879166 2.503510 39,000 168 453 -64
2019-12-06 19:24:03 GMT 46.883698 2.502136 39,000 168 453 -64
2019-12-06 19:23:57 GMT 46.906269 2.495375 39,000 168 453 0
2019-12-06 19:23:52 GMT 46.906269 2.495375 39,000 168 453 0
2019-12-06 19:23:48 GMT 46.920605 2.491009 39,000 168 452 128
2019-12-06 19:23:45 GMT 46.920605 2.491009 39,000 168 452 192
2019-12-06 19:23:42 GMT 46.929199 2.488472 39,000 168 452 192
2019-12-06 19:23:39 GMT 46.933270 2.487206 38,975 168 453 64
2019-12-06 19:23:36 GMT 46.938995 2.485445 38,975 168 452 192
2019-12-06 19:23:32 GMT 46.959915 2.479202 38,950 168 453 128
2019-12-06 19:23:26 GMT 46.968555 2.476572 38,950 168 453 64
2019-12-06 19:23:21 GMT 46.968555 2.476572 38,950 168 452 0
2019-12-06 19:23:17 GMT 46.977959 2.473755 38,950 168 453 64
2019-12-06 19:23:11 GMT 46.990265 2.470001 38,950 168 452 -64
2019-12-06 19:23:08 GMT 46.997223 2.467873 38,950 168 452 -64
2019-12-06 19:23:05 GMT 47.005424 2.465374 38,975 168 452 -64
2019-12-06 19:23:01 GMT 47.016876 2.461923 38,975 168 451 0
2019-12-06 19:22:54 GMT 47.025055 2.459427 38,975 168 451 -64
2019-12-06 19:22:49 GMT 47.034439 2.456543 38,975 168 451 0
2019-12-06 19:22:46 GMT 47.041397 2.454483 38,975 168 451 0
2019-12-06 19:22:43 GMT 47.047119 2.452698 38,975 168 451 0
2019-12-06 19:22:40 GMT 47.056072 2.449951 38,975 168 451 -64
2019-12-06 19:22:36 GMT 47.062637 2.447960 38,975 168 451 0
2019-12-06 19:22:29 GMT 47.075684 2.443977 38,975 168 451 0
2019-12-06 19:22:26 GMT 47.082233 2.441993 38,975 168 451 64
2019-12-06 19:22:19 GMT 47.096924 2.437523 38,975 168 451 0
2019-12-06 19:22:16 GMT 47.112820 2.432627 39,025 168 452 -64
2019-12-06 19:22:09 GMT 47.116928 2.431412 39,000 168 452 -128
2019-12-06 19:22:06 GMT 47.123062 2.429489 39,000 168 452 -128
2019-12-06 19:22:03 GMT 47.129578 2.427486 39,000 168 452 -64
2019-12-06 19:21:56 GMT 47.146336 2.422415 39,025 168 452 -64
2019-12-06 19:21:53 GMT 47.161884 2.417626 39,025 168 452 0
2019-12-06 19:21:48 GMT 47.161884 2.417626 39,025 168 452 0
2019-12-06 19:21:45 GMT 47.164772 2.416781 39,025 168 452 0
2019-12-06 19:21:41 GMT 47.182789 2.411217 39,025 168 453 64
2019-12-06 19:21:37 GMT 47.182789 2.411217 39,025 168 453 64
2019-12-06 19:21:34 GMT 47.188934 2.409386 39,025 168 453 64
2019-12-06 19:21:31 GMT 47.194660 2.407626 39,025 168 453 64
2019-12-06 19:21:26 GMT 47.208626 2.403330 39,025 168 454 64
2019-12-06 19:21:20 GMT 47.217655 2.400513 39,025 168 455 0
2019-12-06 19:21:15 GMT 47.230412 2.396569 39,025 168 456 -64
2019-12-06 19:21:11 GMT 47.235344 2.395020 39,025 168 457 64
2019-12-06 19:21:05 GMT 47.255966 2.388681 39,025 168 456 0
2019-12-06 19:21:02 GMT 47.255966 2.388681 39,025 168 456 0
2019-12-06 19:20:55 GMT 47.270004 2.384377 39,025 168 456 0
2019-12-06 19:20:51 GMT 47.282410 2.380653 39,025 168 456 0
2019-12-06 19:20:45 GMT 47.289825 2.378334 39,025 168 457 -64
2019-12-06 19:20:42 GMT 47.301819 2.374626 39,050 168 457 -64
2019-12-06 19:20:33 GMT 47.315048 2.370575 39,050 168 457 128
2019-12-06 19:20:29 GMT 47.323330 2.367976 39,025 168 457 128
2019-12-06 19:20:25 GMT 47.331196 2.365582 39,025 168 457 128
2019-12-06 19:20:22 GMT 47.338226 2.363469 39,025 168 457 64
2019-12-06 19:20:17 GMT 47.349400 2.360018 39,025 168 458 0
2019-12-06 19:20:14 GMT 47.360199 2.356708 39,025 168 458 0
2019-12-06 19:20:11 GMT 47.367229 2.354525 39,025 168 458 0
2019-12-06 19:20:04 GMT 47.374676 2.352201 39,025 168 458 64
2019-12-06 19:20:01 GMT 47.382591 2.349736 39,025 168 458 192
2019-12-06 19:19:57 GMT 47.397903 2.345032 39,025 168 458 192
2019-12-06 19:19:53 GMT 47.397903 2.345032 39,000 168 458 192
2019-12-06 19:19:50 GMT 47.403717 2.343178 39,000 168 458 192
2019-12-06 19:19:47 GMT 47.409962 2.341285 39,000 168 459 128
2019-12-06 19:19:43 GMT 47.418228 2.338715 38,975 168 459 128
2019-12-06 19:19:39 GMT 47.427372 2.335862 38,975 168 459 64
2019-12-06 19:19:34 GMT 47.436962 2.332905 38,975 168 459 64
2019-12-06 19:19:31 GMT 47.444000 2.330750 38,975 168 459 64
2019-12-06 19:19:28 GMT 47.458145 2.326355 38,975 168 459 64
2019-12-06 19:19:25 GMT 47.458145 2.326355 38,975 168 459 64
2019-12-06 19:19:21 GMT 47.464371 2.324432 38,975 168 459 64
2019-12-06 19:19:18 GMT 47.471039 2.322411 38,975 168 459 0
2019-12-06 19:19:14 GMT 47.487659 2.317270 38,975 168 459 0
2019-12-06 19:19:07 GMT 47.500553 2.313256 38,975 168 459 -64
2019-12-06 19:19:04 GMT 47.500553 2.313256 38,975 168 459 -64
2019-12-06 19:19:01 GMT 47.505535 2.311707 38,975 168 459 -64
2019-12-06 19:18:57 GMT 47.513397 2.309326 38,975 168 458 -64
2019-12-06 19:18:54 GMT 47.520058 2.307199 39,000 168 458 -64
2019-12-06 19:18:51 GMT 47.525848 2.305412 39,000 168 457 0
2019-12-06 19:18:47 GMT 47.537468 2.301847 39,000 168 456 0
2019-12-06 19:18:44 GMT 47.541565 2.300509 39,000 168 459 64
2019-12-06 19:18:40 GMT 47.549435 2.298114 39,000 168 456 64
2019-12-06 19:18:37 GMT 47.555649 2.296143 39,000 168 456 64
2019-12-06 19:18:34 GMT 47.561024 2.294452 39,000 168 456 0
2019-12-06 19:18:28 GMT 47.583710 2.287422 39,000 168 456 0
2019-12-06 19:18:23 GMT 47.583710 2.287422 39,000 168 456 0
2019-12-06 19:18:18 GMT 47.594879 2.283989 39,000 168 456 64
2019-12-06 19:18:13 GMT 47.604401 2.281036 39,000 168 456 128
2019-12-06 19:18:10 GMT 47.610992 2.278976 38,975 168 456 64
2019-12-06 19:18:07 GMT 47.616348 2.277260 38,975 168 457 -64
2019-12-06 19:18:02 GMT 47.634949 2.271494 38,975 168 457 -64
2019-12-06 19:17:59 GMT 47.639511 2.270119 39,000 168 459 64
2019-12-06 19:17:56 GMT 47.639511 2.270119 39,000 168 457 -64
2019-12-06 19:17:53 GMT 47.648636 2.267268 39,000 168 457 64
2019-12-06 19:17:50 GMT 47.653976 2.265587 39,000 168 457 0
2019-12-06 19:17:45 GMT 47.662647 2.262902 39,000 168 457 64
2019-12-06 19:17:42 GMT 47.668884 2.260930 39,000 168 456 64
2019-12-06 19:17:38 GMT 47.678383 2.257972 39,000 168 457 64
2019-12-06 19:17:35 GMT 47.682907 2.256592 39,000 168 457 64
2019-12-06 19:17:32 GMT 47.692024 2.253747 39,000 168 457 64
2019-12-06 19:17:28 GMT 47.697376 2.252056 38,975 168 459 64
2019-12-06 19:17:25 GMT 47.705658 2.249451 38,975 168 457 -64
2019-12-06 19:17:21 GMT 47.712708 2.247253 38,975 168 457 -64
2019-12-06 19:17:18 GMT 47.720188 2.244943 38,975 168 457 -64
2019-12-06 19:17:13 GMT 47.728848 2.242197 39,000 168 457 64
2019-12-06 19:17:10 GMT 47.736328 2.239906 39,000 168 457 64
2019-12-06 19:17:07 GMT 47.741272 2.238327 39,000 168 457 64
2019-12-06 19:17:03 GMT 47.756607 2.233521 39,000 168 458 64
2019-12-06 19:17:00 GMT 47.756607 2.233521 38,975 167 461 -128
2019-12-06 19:16:54 GMT 47.768230 2.229872 38,975 168 458 64
2019-12-06 19:16:50 GMT 47.778564 2.226562 38,975 168 458 64
2019-12-06 19:16:46 GMT 47.783962 2.224872 38,975 168 459 64
2019-12-06 19:16:43 GMT 47.790619 2.222830 38,975 168 459 64
2019-12-06 19:16:40 GMT 47.798534 2.220365 38,975 168 459 64
2019-12-06 19:16:37 GMT 47.804771 2.218393 38,975 168 459 64
2019-12-06 19:16:34 GMT 47.808929 2.217110 38,975 168 459 64
2019-12-06 19:16:31 GMT 47.824326 2.212266 38,975 168 459 0
2019-12-06 19:16:27 GMT 47.830143 2.210435 38,975 168 459 0
2019-12-06 19:16:24 GMT 47.830143 2.210435 38,975 168 460 0
2019-12-06 19:16:20 GMT 47.838013 2.207970 38,975 168 460 0
2019-12-06 19:16:16 GMT 47.848846 2.204544 38,975 168 460 -128
2019-12-06 19:16:12 GMT 47.856354 2.202195 38,975 168 464 -64
2019-12-06 19:16:09 GMT 47.861343 2.200630 38,975 168 464 -64
2019-12-06 19:16:06 GMT 47.867569 2.198708 39,000 168 460 -128
2019-12-06 19:16:03 GMT 47.874229 2.196561 39,000 167 460 -64
2019-12-06 19:16:00 GMT 47.879654 2.194862 39,025 167 464 -64
2019-12-06 19:15:56 GMT 47.891312 2.191209 39,025 167 461 192
2019-12-06 19:15:52 GMT 47.897964 2.189095 39,025 167 460 128
2019-12-06 19:15:48 GMT 47.906662 2.186348 38,975 168 462 128
2019-12-06 19:15:45 GMT 47.910027 2.185293 39,000 167 461 192
2019-12-06 19:15:42 GMT 47.926693 2.180011 38,975 168 463 64
2019-12-06 19:15:38 GMT 47.926693 2.180011 38,975 168 464 -64
2019-12-06 19:15:35 GMT 47.932983 2.178040 38,975 168 464 -64
2019-12-06 19:15:32 GMT 47.939682 2.175927 39,000 168 464 -128
2019-12-06 19:15:28 GMT 47.948479 2.173180 39,025 167 464 -64
2019-12-06 19:15:25 GMT 47.955185 2.171036 39,025 167 464 -64
2019-12-06 19:15:22 GMT 47.959419 2.169729 39,025 167 464 -64
2019-12-06 19:15:17 GMT 47.977856 2.163814 39,025 167 466 64
2019-12-06 19:15:11 GMT 47.982044 2.162476 39,025 167 464 0
2019-12-06 19:15:08 GMT 47.995449 2.158250 39,025 167 465 64
2019-12-06 19:15:02 GMT 48.003433 2.155724 39,025 167 466 64
2019-12-06 19:14:56 GMT 48.012680 2.152771 39,025 167 466 64
2019-12-06 19:14:53 GMT 48.018997 2.150711 39,000 167 467 64
2019-12-06 19:14:50 GMT 48.027832 2.147896 39,000 160 476 0
2019-12-06 19:14:46 GMT 48.045170 2.142404 39,000 167 468 64
2019-12-06 19:14:43 GMT 48.045170 2.142404 39,000 168 468 0
2019-12-06 19:14:39 GMT 48.051918 2.140292 39,000 168 468 64
2019-12-06 19:14:35 GMT 48.059967 2.137733 39,000 167 468 64
2019-12-06 19:14:32 GMT 48.065884 2.135855 39,000 167 468 64
2019-12-06 19:14:28 GMT 48.075165 2.132858 39,000 167 469 0
2019-12-06 19:14:24 GMT 48.082809 2.130386 39,000 166 470 -64
2019-12-06 19:14:21 GMT 48.089172 2.128258 39,000 166 471 -64
2019-12-06 19:14:17 GMT 48.096748 2.125502 39,025 166 471 -64
2019-12-06 19:14:13 GMT 48.108154 2.121136 39,025 164 471 64
2019-12-06 19:14:10 GMT 48.111088 2.119939 39,025 164 472 128
2019-12-06 19:14:07 GMT 48.118256 2.116910 39,025 163 472 128
2019-12-06 19:14:04 GMT 48.132919 2.110361 39,000 162 474 64
2019-12-06 19:13:58 GMT 48.138317 2.107826 39,000 161 474 0
2019-12-06 19:13:55 GMT 48.142509 2.105783 39,000 161 475 0
2019-12-06 19:13:52 GMT 48.150009 2.102097 39,000 160 476 -64
2019-12-06 19:13:49 GMT 48.155403 2.099304 39,000 158 478 64
2019-12-06 19:13:45 GMT 48.162460 2.095572 39,025 159 477 -64
2019-12-06 19:13:42 GMT 48.170334 2.091276 39,000 159 477 0
2019-12-06 19:13:39 GMT 48.176514 2.087754 39,000 159 477 0
2019-12-06 19:13:35 GMT 48.184753 2.082966 39,025 157 478 128
2019-12-06 19:13:31 GMT 48.200226 2.073247 39,000 154 481 0
2019-12-06 19:13:25 GMT 48.205124 2.070007 39,000 155 481 0
2019-12-06 19:13:21 GMT 48.213966 2.063912 38,975 154 481 0
2019-12-06 19:13:14 GMT 48.225605 2.055455 39,000 152 483 0
2019-12-06 19:13:10 GMT 48.241852 2.042734 39,000 151 485 0
2019-12-06 19:13:04 GMT 48.246552 2.038879 39,000 151 484 -64
2019-12-06 19:13:00 GMT 48.256348 2.030780 39,000 151 485 -64
2019-12-06 19:12:55 GMT 48.265778 2.023034 39,000 151 485 64
2019-12-06 19:12:52 GMT 48.270447 2.019160 39,000 151 483 64
2019-12-06 19:12:48 GMT 48.281048 2.010426 39,000 151 484 64
2019-12-06 19:12:45 GMT 48.284168 2.007896 39,000 151 484 64
2019-12-06 19:12:42 GMT 48.289661 2.003342 39,000 151 485 64
2019-12-06 19:12:38 GMT 48.298691 1.995898 39,000 151 485 0
2019-12-06 19:12:35 GMT 48.304184 1.991344 39,000 151 486 0
2019-12-06 19:12:32 GMT 48.315590 1.981948 39,025 151 485 -128
2019-12-06 19:12:29 GMT 48.315590 1.981948 39,000 151 485 -128
2019-12-06 19:12:26 GMT 48.321457 1.977105 39,025 151 485 -64
2019-12-06 19:12:22 GMT 48.329315 1.970637 39,025 151 485 -64
2019-12-06 19:12:18 GMT 48.338726 1.962867 39,050 151 485 64
2019-12-06 19:12:15 GMT 48.343430 1.958963 39,025 151 485 64
2019-12-06 19:12:12 GMT 48.350464 1.953102 39,025 151 485 64
2019-12-06 19:12:09 GMT 48.355579 1.948917 39,025 151 485 64
2019-12-06 19:12:06 GMT 48.361073 1.944363 39,025 151 485 64
2019-12-06 19:12:03 GMT 48.364609 1.941411 39,000 151 486 0
2019-12-06 19:11:59 GMT 48.373222 1.934244 39,000 151 486 0
2019-12-06 19:11:56 GMT 48.386993 1.922819 39,000 151 486 64
2019-12-06 19:11:53 GMT 48.386993 1.922819 39,000 151 486 64
2019-12-06 19:11:50 GMT 48.393703 1.917259 39,000 151 486 128
2019-12-06 19:11:47 GMT 48.408646 1.904860 39,000 151 486 128
2019-12-06 19:11:42 GMT 48.408646 1.904860 39,000 151 487 0
2019-12-06 19:11:38 GMT 48.416515 1.898322 39,000 151 487 64
2019-12-06 19:11:34 GMT 48.423218 1.892829 39,000 151 487 0
2019-12-06 19:11:31 GMT 48.438171 1.880352 39,000 151 487 0
2019-12-06 19:11:27 GMT 48.438171 1.880352 39,000 151 487 0
2019-12-06 19:11:24 GMT 48.444492 1.875120 39,000 151 487 0
2019-12-06 19:11:21 GMT 48.448822 1.871579 39,000 151 487 0
2019-12-06 19:11:17 GMT 48.456318 1.865363 39,000 151 487 0
2019-12-06 19:11:14 GMT 48.461838 1.860774 39,000 151 487 0
2019-12-06 19:11:11 GMT 48.469677 1.854232 39,000 151 487 0
2019-12-06 19:11:08 GMT 48.481922 1.844041 39,000 151 487 0
2019-12-06 19:11:01 GMT 48.489761 1.837463 39,000 151 487 64
2019-12-06 19:10:58 GMT 48.500793 1.828308 39,000 151 487 0
2019-12-06 19:10:55 GMT 48.505898 1.824020 39,000 151 487 64
2019-12-06 19:10:49 GMT 48.512192 1.818801 39,000 151 487 64
2019-12-06 19:10:46 GMT 48.518097 1.813871 39,000 150 487 128
2019-12-06 19:10:43 GMT 48.523590 1.809223 39,000 150 487 128
2019-12-06 19:10:40 GMT 48.529079 1.804649 39,000 150 487 128
2019-12-06 19:10:37 GMT 48.536957 1.798096 39,000 150 488 64
2019-12-06 19:10:34 GMT 48.540901 1.794747 39,000 150 488 64
2019-12-06 19:10:31 GMT 48.547989 1.788870 39,000 150 483 0
2019-12-06 19:10:26 GMT 48.560593 1.778340 39,000 151 488 64
2019-12-06 19:10:23 GMT 48.565762 1.774075 39,000 151 487 64
2019-12-06 19:10:19 GMT 48.579540 1.762583 39,000 151 487 64
2019-12-06 19:10:15 GMT 48.579540 1.762583 39,000 151 487 64
2019-12-06 19:10:12 GMT 48.590973 1.753024 39,000 151 487 0
2019-12-06 19:10:09 GMT 48.590973 1.753024 39,000 151 487 0
2019-12-06 19:10:06 GMT 48.602783 1.743164 39,000 151 487 0
2019-12-06 19:10:03 GMT 48.607891 1.738948 39,000 150 486 0
2019-12-06 19:10:00 GMT 48.607891 1.738948 39,000 150 486 0
2019-12-06 19:09:57 GMT 48.616516 1.731685 39,000 150 485 0
2019-12-06 19:09:53 GMT 48.628693 1.721544 39,000 150 483 0
2019-12-06 19:09:50 GMT 48.628693 1.721544 39,000 150 483 0
2019-12-06 19:09:44 GMT 48.643890 1.708726 39,000 150 483 64
2019-12-06 19:09:38 GMT 48.651695 1.702230 38,975 150 481 192
2019-12-06 19:09:34 GMT 48.660637 1.694713 38,975 150 481 192
2019-12-06 19:09:30 GMT 48.672691 1.684594 38,950 150 480 320
2019-12-06 19:09:23 GMT 48.680420 1.678089 38,950 150 480 128
2019-12-06 19:09:18 GMT 48.690536 1.669640 38,950 150 479 64
2019-12-06 19:09:13 GMT 48.708298 1.654710 38,950 150 479 -64
2019-12-06 19:09:09 GMT 48.716030 1.648238 38,950 150 479 -128
2019-12-06 19:09:06 GMT 48.716030 1.648238 38,950 150 479 -128
2019-12-06 19:09:02 GMT 48.722626 1.642667 38,950 150 478 -128
2019-12-06 19:08:59 GMT 48.726471 1.639428 38,950 150 478 -128
2019-12-06 19:08:55 GMT 48.734573 1.632597 38,950 150 478 -192
2019-12-06 19:08:51 GMT 48.747299 1.621821 38,975 150 479 -192
2019-12-06 19:08:48 GMT 48.753891 1.616328 39,025 150 486 128
2019-12-06 19:08:45 GMT 48.753891 1.616328 38,975 150 478 -192
2019-12-06 19:08:42 GMT 48.762398 1.609136 38,975 150 478 -192
2019-12-06 19:08:37 GMT 48.772430 1.600694 39,000 150 479 -128
2019-12-06 19:08:34 GMT 48.780945 1.593511 39,025 150 479 -128
2019-12-06 19:08:31 GMT 48.780945 1.593511 39,025 150 479 -128
2019-12-06 19:08:28 GMT 48.785568 1.589637 39,025 150 479 0
2019-12-06 19:08:25 GMT 48.792892 1.583440 39,000 150 479 64
2019-12-06 19:08:22 GMT 48.799084 1.578200 39,025 150 481 128
2019-12-06 19:08:19 GMT 48.810349 1.568660 39,025 150 482 128
2019-12-06 19:08:13 GMT 48.821194 1.559480 39,000 150 483 64
2019-12-06 19:08:10 GMT 48.826675 1.554847 39,000 150 484 64
2019-12-06 19:08:07 GMT 48.839165 1.544302 39,000 150 484 64
2019-12-06 19:08:03 GMT 48.839165 1.544302 39,000 150 485 128
2019-12-06 19:08:00 GMT 48.841537 1.542278 39,000 150 486 128
2019-12-06 19:07:57 GMT 48.854462 1.531396 39,000 150 486 128
2019-12-06 19:07:54 GMT 48.860344 1.526377 39,000 150 487 64
2019-12-06 19:07:51 GMT 48.866638 1.521043 39,000 150 487 128
2019-12-06 19:07:48 GMT 48.866638 1.521043 38,975 150 487 64
2019-12-06 19:07:45 GMT 48.869793 1.518426 38,975 150 487 64
2019-12-06 19:07:42 GMT 48.879227 1.510409 38,975 150 486 0
2019-12-06 19:07:39 GMT 48.881973 1.508085 39,000 150 487 64
2019-12-06 19:07:36 GMT 48.888245 1.502732 39,000 150 487 0
2019-12-06 19:07:33 GMT 48.894150 1.497732 39,000 150 485 0
2019-12-06 19:07:30 GMT 48.901611 1.491464 39,000 150 483 0
2019-12-06 19:07:27 GMT 48.909039 1.485106 39,000 150 484 0
2019-12-06 19:07:21 GMT 48.922726 1.473541 39,000 150 484 0
2019-12-06 19:07:18 GMT 48.922726 1.473541 39,000 150 483 0
2019-12-06 19:07:15 GMT 48.936722 1.461604 39,000 150 483 0
2019-12-06 19:07:11 GMT 48.944138 1.455266 39,000 150 482 64
2019-12-06 19:07:08 GMT 48.944138 1.455266 39,000 150 482 64
2019-12-06 19:07:05 GMT 48.952286 1.448364 39,000 150 481 64
2019-12-06 19:07:01 GMT 48.958878 1.442730 39,000 150 481 64
2019-12-06 19:06:58 GMT 48.962013 1.440076 39,000 150 481 64
2019-12-06 19:06:55 GMT 48.968216 1.434843 39,000 150 481 64
2019-12-06 19:06:52 GMT 48.975540 1.428575 39,000 150 475 -64
2019-12-06 19:06:49 GMT 48.979431 1.425265 39,000 150 479 0
2019-12-06 19:06:46 GMT 48.986023 1.419631 39,000 150 479 0
2019-12-06 19:06:43 GMT 48.991425 1.415053 39,000 150 479 0
2019-12-06 19:06:40 GMT 48.997581 1.409792 39,000 150 477 0
2019-12-06 19:06:37 GMT 49.004890 1.403576 39,000 150 476 0
2019-12-06 19:06:29 GMT 49.017563 1.392799 39,000 150 475 -64
2019-12-06 19:06:26 GMT 49.031750 1.380736 39,000 150 473 0
2019-12-06 19:06:22 GMT 49.031750 1.380736 39,025 150 473 0
2019-12-06 19:06:19 GMT 49.038208 1.375192 39,000 150 472 64
2019-12-06 19:06:16 GMT 49.043930 1.370333 39,025 150 472 0
2019-12-06 19:06:12 GMT 49.051163 1.364136 39,000 150 472 0
2019-12-06 19:06:09 GMT 49.057632 1.358618 39,000 150 472 0
2019-12-06 19:06:06 GMT 49.072083 1.346248 39,000 150 473 0
2019-12-06 19:06:01 GMT 49.072083 1.346248 39,000 150 473 0
2019-12-06 19:05:58 GMT 49.082771 1.337079 39,000 150 474 0
2019-12-06 19:05:52 GMT 49.089241 1.331586 39,000 150 474 0
2019-12-06 19:05:49 GMT 49.096115 1.325684 39,000 150 475 0
2019-12-06 19:05:46 GMT 49.101105 1.321458 39,000 150 475 0
2019-12-06 19:05:41 GMT 49.111820 1.312288 39,000 150 476 0
2019-12-06 19:05:38 GMT 49.116009 1.308674 39,000 150 475 0
2019-12-06 19:05:35 GMT 49.120617 1.304699 39,000 150 476 64
2019-12-06 19:05:31 GMT 49.129417 1.297182 39,000 150 478 64
2019-12-06 19:05:28 GMT 49.135933 1.291544 39,000 150 479 64
2019-12-06 19:05:25 GMT 49.140541 1.287641 39,000 150 476 64
2019-12-06 19:05:22 GMT 49.152412 1.277377 39,000 150 478 64
2019-12-06 19:05:19 GMT 49.152412 1.277377 39,000 150 478 64
2019-12-06 19:05:16 GMT 49.157814 1.272679 39,000 150 479 64
2019-12-06 19:05:13 GMT 49.162792 1.268415 39,025 150 478 -64
2019-12-06 19:05:10 GMT 49.170502 1.261808 38,975 150 479 -128
2019-12-06 19:05:06 GMT 49.178604 1.254836 39,000 150 477 192
2019-12-06 19:05:02 GMT 49.186340 1.248216 39,000 150 478 -128
2019-12-06 19:04:59 GMT 49.190552 1.244554 39,000 150 479 -128
2019-12-06 19:04:56 GMT 49.197895 1.238275 39,025 150 478 -64
2019-12-06 19:04:53 GMT 49.204041 1.232998 39,025 150 478 -64
2019-12-06 19:04:50 GMT 49.208679 1.228990 39,025 150 477 64
2019-12-06 19:04:47 GMT 49.213257 1.225046 39,025 150 477 64
2019-12-06 19:04:44 GMT 49.220192 1.219121 39,025 150 476 64
2019-12-06 19:04:39 GMT 49.230148 1.210468 39,000 150 477 256
2019-12-06 19:04:36 GMT 49.235916 1.205538 38,975 150 479 256
2019-12-06 19:04:33 GMT 49.238998 1.202858 38,975 150 479 256
2019-12-06 19:04:30 GMT 49.247055 1.195847 38,975 150 479 256
2019-12-06 19:04:27 GMT 49.253998 1.189904 38,950 150 480 192
2019-12-06 19:04:24 GMT 49.258224 1.186234 38,950 150 480 192
2019-12-06 19:04:21 GMT 49.264435 1.180889 38,925 150 480 192
2019-12-06 19:04:18 GMT 49.270611 1.175537 38,900 150 480 448
2019-12-06 19:04:15 GMT 49.275219 1.171562 38,900 150 480 448
2019-12-06 19:04:12 GMT 49.282196 1.165537 38,900 150 480 512
2019-12-06 19:04:08 GMT 49.288376 1.160255 38,750 150 484 1344
2019-12-06 19:04:05 GMT 49.293777 1.155536 38,750 150 488 1344
2019-12-06 19:03:58 GMT 49.309250 1.142226 38,750 150 482 1408
2019-12-06 19:03:53 GMT 49.317719 1.134917 38,450 150 481 1280
2019-12-06 19:03:50 GMT 49.324310 1.129197 38,450 150 484 1344
2019-12-06 19:03:47 GMT 49.333267 1.121473 38,450 150 486 1344
2019-12-06 19:03:41 GMT 49.339462 1.116028 38,400 150 486 1344
2019-12-06 19:03:38 GMT 49.347656 1.108985 38,300 150 487 1344
2019-12-06 19:03:35 GMT 49.353939 1.103548 37,075 150 488 1344
2019-12-06 19:03:30 GMT 49.362549 1.096031 38,050 150 490 1344
2019-12-06 19:03:27 GMT 49.372009 1.087858 38,050 150 490 1344
2019-12-06 19:03:24 GMT 49.382240 1.079045 37,550 150 498 768
2019-12-06 19:03:21 GMT 49.382240 1.079045 37,900 150 492 1344
2019-12-06 19:03:17 GMT 49.387390 1.074618 37,700 150 496 1088
2019-12-06 19:03:14 GMT 49.396114 1.067047 37,475 150 493 1280
2019-12-06 19:03:10 GMT 49.402451 1.061589 37,725 150 493 1280
2019-12-06 19:03:07 GMT 49.416321 1.049546 37,375 150 497 1088
2019-12-06 19:03:00 GMT 49.423489 1.043340 37,500 150 495 1152
2019-12-06 19:02:57 GMT 49.426281 1.040882 37,275 150 496 1088
2019-12-06 19:02:51 GMT 49.439827 1.029152 37,325 150 497 1088
2019-12-06 19:02:48 GMT 49.456215 1.014825 37,175 150 498 1024
2019-12-06 19:02:44 GMT 49.456215 1.014825 37,200 150 498 960
2019-12-06 19:02:38 GMT 49.467014 1.005472 36,975 150 496 640
2019-12-06 19:02:35 GMT 49.476196 0.997443 37,050 150 496 640
2019-12-06 19:02:27 GMT 49.487774 0.987359 36,975 150 496 640
2019-12-06 19:02:24 GMT 49.494946 0.981124 36,975 150 496 640
2019-12-06 19:02:21 GMT 49.502533 0.974517 36,350 150 493 640
2019-12-06 19:02:17 GMT 49.509705 0.968315 36,875 150 495 640
2019-12-06 19:02:13 GMT 49.517258 0.961737 36,850 150 495 640
2019-12-06 19:02:10 GMT 49.520050 0.959280 36,650 150 491 576
2019-12-06 19:02:06 GMT 49.528381 0.951980 36,775 150 494 704
2019-12-06 19:02:03 GMT 49.541077 0.940890 36,675 150 492 640
2019-12-06 19:01:57 GMT 49.547783 0.935026 36,675 150 493 704
2019-12-06 19:01:54 GMT 49.556488 0.927405 36,600 150 491 576
2019-12-06 19:01:46 GMT 49.571102 0.914612 36,525 150 491 576
2019-12-06 19:01:42 GMT 49.578598 0.908079 36,400 150 490 640
2019-12-06 19:01:39 GMT 49.583721 0.903551 36,450 150 489 704
2019-12-06 19:01:36 GMT 49.594711 0.893940 36,400 150 489 768
2019-12-06 19:01:30 GMT 49.609650 0.880836 36,375 150 489 960
2019-12-06 19:01:26 GMT 49.609650 0.880836 36,300 150 486 896
2019-12-06 19:01:23 GMT 49.613560 0.877422 36,275 150 488 960
2019-12-06 19:01:20 GMT 49.620262 0.871557 35,800 150 488 1088
2019-12-06 19:01:16 GMT 49.627293 0.865396 36,125 150 488 960
2019-12-06 19:01:13 GMT 49.636326 0.857527 36,075 150 488 1024
2019-12-06 19:01:10 GMT 49.642189 0.852331 35,800 150 488 1024
2019-12-06 19:01:07 GMT 49.645309 0.849585 35,850 150 488 1088
2019-12-06 19:01:04 GMT 49.653122 0.842695 35,950 150 488 1280
2019-12-06 19:01:01 GMT 49.659367 0.837188 35,800 150 487 960
2019-12-06 19:00:56 GMT 49.674637 0.823758 35,725 150 488 1152
2019-12-06 19:00:53 GMT 49.674637 0.823758 35,650 150 488 1024
2019-12-06 19:00:49 GMT 49.683247 0.816180 35,575 150 487 960
2019-12-06 19:00:46 GMT 49.687958 0.812049 35,550 150 487 960
2019-12-06 19:00:43 GMT 49.693024 0.807569 35,550 150 486 896
2019-12-06 19:00:40 GMT 49.698486 0.802797 35,500 150 486 832
2019-12-06 19:00:37 GMT 49.706291 0.795915 34,725 150 484 640
2019-12-06 19:00:33 GMT 49.711761 0.791088 35,400 150 485 448
2019-12-06 19:00:30 GMT 49.716843 0.786679 35,350 150 487 2432
2019-12-06 19:00:26 GMT 49.734741 0.770922 35,300 150 484 1280
2019-12-06 19:00:21 GMT 49.734741 0.770922 34,675 150 494 2624
2019-12-06 19:00:17 GMT 49.744839 0.761991 35,125 150 485 2048
2019-12-06 19:00:13 GMT 49.753029 0.754790 35,050 150 492 2816
2019-12-06 19:00:10 GMT 49.755775 0.752341 34,975 150 490 2880
2019-12-06 19:00:06 GMT 49.767136 0.742319 34,725 150 491 2816
2019-12-06 19:00:03 GMT 49.770672 0.739202 34,575 150 494 2624
2019-12-06 19:00:00 GMT 49.776958 0.733634 34,500 150 495 2432
2019-12-06 18:59:57 GMT 49.784134 0.727338 34,225 150 498 1856
2019-12-06 18:59:54 GMT 49.788895 0.723074 34,150 150 498 1984
2019-12-06 18:59:51 GMT 49.795300 0.717452 34,150 150 499 1600
2019-12-06 18:59:48 GMT 49.800468 0.712849 34,100 150 499 1600
2019-12-06 18:59:45 GMT 49.814106 0.700824 33,875 150 500 1408
2019-12-06 18:59:42 GMT 49.814106 0.700824 33,875 150 500 1408
2019-12-06 18:59:39 GMT 49.823730 0.692283 33,775 150 501 1408
2019-12-06 18:59:36 GMT 49.830959 0.685903 33,650 150 501 1344
2019-12-06 18:59:29 GMT 49.840221 0.677663 33,450 150 501 1280
2019-12-06 18:59:26 GMT 49.846252 0.672334 33,475 150 501 1280
2019-12-06 18:59:23 GMT 49.851883 0.667347 33,450 150 501 1280
2019-12-06 18:59:20 GMT 49.863918 0.656656 33,350 150 501 1280
2019-12-06 18:59:17 GMT 49.863918 0.656656 33,325 150 501 1472
2019-12-06 18:59:14 GMT 49.869968 0.651385 33,275 149 513 1792
2019-12-06 18:59:11 GMT 49.874359 0.647471 33,150 150 501 1472
2019-12-06 18:59:08 GMT 49.879978 0.642477 32,775 150 503 1984
2019-12-06 18:59:05 GMT 49.896469 0.627811 32,950 150 503 1920
2019-12-06 18:58:59 GMT 49.900909 0.623908 32,800 150 503 1920
2019-12-06 18:58:52 GMT 49.914597 0.611693 32,625 150 504 1728
2019-12-06 18:58:49 GMT 49.925877 0.601576 32,500 150 504 1856
2019-12-06 18:58:46 GMT 49.925877 0.601576 32,325 150 506 2048
2019-12-06 18:58:42 GMT 49.942886 0.586395 32,250 149 507 1984
2019-12-06 18:58:38 GMT 49.942886 0.586395 32,175 150 508 1920
2019-12-06 18:58:34 GMT 49.948563 0.581336 32,100 150 508 1920
2019-12-06 18:58:31 GMT 49.955906 0.574778 31,975 149 509 2048
2019-12-06 18:58:28 GMT 49.962021 0.569338 31,850 149 511 2496
2019-12-06 18:58:25 GMT 49.974667 0.558002 31,675 149 513 2432
2019-12-06 18:58:22 GMT 49.980835 0.552424 31,275 150 516 1600
2019-12-06 18:58:19 GMT 49.980835 0.552424 28,775 149 513 1344
2019-12-06 18:58:15 GMT 49.988258 0.545828 31,375 150 516 1792
2019-12-06 18:58:12 GMT 49.996498 0.538404 31,325 150 516 1600
2019-12-06 18:58:09 GMT 49.999802 0.535435 31,200 150 516 1088
2019-12-06 18:58:06 GMT 50.013428 0.523224 31,025 149 513 1152
2019-12-06 18:58:03 GMT 50.020844 0.516574 31,075 150 514 832
2019-12-06 18:58:00 GMT 50.020844 0.516574 31,025 149 513 1408
2019-12-06 18:57:57 GMT 50.028248 0.509973 30,975 149 513 1280
2019-12-06 18:57:54 GMT 50.041000 0.498542 30,950 150 512 1408
2019-12-06 18:57:51 GMT 50.041000 0.498542 30,800 149 513 1344
2019-12-06 18:57:48 GMT 50.045143 0.494904 30,800 149 513 1344
2019-12-06 18:57:45 GMT 50.056225 0.484957 30,700 149 513 1344
2019-12-06 18:57:42 GMT 50.056225 0.484957 30,650 149 513 1344
2019-12-06 18:57:38 GMT 50.064838 0.477163 30,500 150 512 1408
2019-12-06 18:57:35 GMT 50.070190 0.472412 30,550 150 512 1408
2019-12-06 18:57:32 GMT 50.077545 0.465805 30,450 150 512 1728
2019-12-06 18:57:29 GMT 50.083691 0.460238 30,275 150 512 1536
2019-12-06 18:57:25 GMT 50.095188 0.449994 30,175 149 513 1792
2019-12-06 18:57:22 GMT 50.102554 0.443356 30,175 149 513 1792
2019-12-06 18:57:19 GMT 50.111984 0.434827 30,050 149 513 1792
2019-12-06 18:57:16 GMT 50.111984 0.434827 30,000 149 513 1600
2019-12-06 18:57:13 GMT 50.114880 0.432253 29,950 149 513 1600
2019-12-06 18:57:10 GMT 50.123493 0.424533 29,825 149 513 1408
2019-12-06 18:57:07 GMT 50.128830 0.419721 29,775 149 513 1280
2019-12-06 18:57:04 GMT 50.135788 0.413433 29,725 149 513 1280
2019-12-06 18:57:01 GMT 50.141556 0.408276 29,650 149 513 1280
2019-12-06 18:56:58 GMT 50.144806 0.405338 29,525 150 512 1152
2019-12-06 18:56:55 GMT 50.153847 0.397215 29,525 150 512 1088
2019-12-06 18:56:52 GMT 50.157940 0.393504 29,375 150 510 960
2019-12-06 18:56:49 GMT 50.164085 0.388010 29,400 149 511 960
2019-12-06 18:56:46 GMT 50.171860 0.381033 29,375 150 510 1024
2019-12-06 18:56:43 GMT 50.177170 0.376209 29,300 150 510 1024
2019-12-06 18:56:40 GMT 50.184525 0.369601 29,250 148 508 1216
2019-12-06 18:56:37 GMT 50.192596 0.362187 29,125 148 508 1216
2019-12-06 18:56:34 GMT 50.200653 0.354598 29,100 148 509 1216
2019-12-06 18:56:31 GMT 50.200653 0.354598 28,950 147 508 1216
2019-12-06 18:56:28 GMT 50.208637 0.346886 29,000 147 509 1280
2019-12-06 18:56:25 GMT 50.213387 0.342135 28,925 146 508 1280
2019-12-06 18:56:22 GMT 50.220474 0.334938 28,875 146 508 1280
2019-12-06 18:56:18 GMT 50.228283 0.326769 28,800 145 508 1344
2019-12-06 18:56:15 GMT 50.239471 0.314700 28,700 144 508 1472
2019-12-06 18:56:12 GMT 50.244049 0.309569 28,575 144 507 1216
2019-12-06 18:56:06 GMT 50.248627 0.304499 28,475 144 506 1088
2019-12-06 18:56:03 GMT 50.257378 0.294627 28,425 144 506 1088
2019-12-06 18:56:00 GMT 50.263428 0.287797 28,350 144 504 960
2019-12-06 18:55:57 GMT 50.275909 0.273719 28,300 144 503 1024
2019-12-06 18:55:54 GMT 50.275909 0.273719 28,250 144 502 1152
2019-12-06 18:55:51 GMT 50.279663 0.269454 28,175 144 500 1984
2019-12-06 18:55:48 GMT 50.291290 0.256299 27,875 143 501 1536
2019-12-06 18:55:45 GMT 50.291290 0.256299 28,075 143 501 1728
2019-12-06 18:55:42 GMT 50.303276 0.242738 27,950 144 500 1856
2019-12-06 18:55:39 GMT 50.303276 0.242738 27,200 144 500 2048
2019-12-06 18:55:36 GMT 50.307358 0.238013 27,725 144 501 2176
2019-12-06 18:55:33 GMT 50.314499 0.229990 27,725 144 501 2112
2019-12-06 18:55:29 GMT 50.319397 0.224497 27,425 144 502 2048
2019-12-06 18:55:26 GMT 50.331768 0.210522 27,400 144 502 1856
2019-12-06 18:55:23 GMT 50.331768 0.210522 27,000 144 502 1792
2019-12-06 18:55:19 GMT 50.338936 0.202431 27,225 144 502 1728
2019-12-06 18:55:16 GMT 50.343842 0.196959 27,125 144 501 1728
2019-12-06 18:55:13 GMT 50.356659 0.182648 27,000 144 501 1664
2019-12-06 18:55:06 GMT 50.363434 0.175058 26,425 144 495 1408
2019-12-06 18:55:03 GMT 50.376251 0.160747 26,750 144 500 1280
2019-12-06 18:55:00 GMT 50.376251 0.160747 26,700 144 499 1280
2019-12-06 18:54:57 GMT 50.381111 0.155293 26,675 144 498 1280
2019-12-06 18:54:54 GMT 50.385223 0.150701 24,650 144 496 1344
2019-12-06 18:54:51 GMT 50.392319 0.142678 26,325 144 493 1600
2019-12-06 18:54:48 GMT 50.398663 0.135548 26,050 144 493 1664
2019-12-06 18:54:44 GMT 50.404995 0.128495 26,350 144 494 1472
2019-12-06 18:54:41 GMT 50.417191 0.114688 25,350 144 490 1856
2019-12-06 18:54:38 GMT 50.417191 0.114688 26,200 144 493 1664
2019-12-06 18:54:35 GMT 50.420170 0.111348 25,125 144 488 1920
2019-12-06 18:54:32 GMT 50.426456 0.104222 25,925 144 492 1792
2019-12-06 18:54:29 GMT 50.430878 0.099248 25,425 144 488 1856
2019-12-06 18:54:26 GMT 50.436417 0.092938 25,825 144 491 1792
2019-12-06 18:54:23 GMT 50.443405 0.085072 25,775 144 491 1792
2019-12-06 18:54:20 GMT 50.448944 0.078856 25,650 144 490 1856
2019-12-06 18:54:17 GMT 50.456295 0.070520 24,325 144 476 1344
2019-12-06 18:54:14 GMT 50.460342 0.065990 25,525 144 490 1856
2019-12-06 18:54:10 GMT 50.465515 0.060208 25,450 144 490 1856
2019-12-06 18:54:07 GMT 50.473614 0.051146 25,025 144 489 1920
2019-12-06 18:54:04 GMT 50.476913 0.047415 25,175 144 489 1920
2019-12-06 18:54:01 GMT 50.485016 0.038378 24,650 144 487 1792
2019-12-06 18:53:58 GMT 50.489067 0.033850 24,850 144 488 1856
2019-12-06 18:53:55 GMT 50.496422 0.025610 24,850 144 488 1856
2019-12-06 18:53:52 GMT 50.500809 0.020744 24,800 144 488 1856
2019-12-06 18:53:49 GMT 50.505592 0.015366 24,725 144 487 1856
2019-12-06 18:53:46 GMT 50.511459 0.008834 24,400 144 484 1152
2019-12-06 18:53:43 GMT 50.523235 -0.004305 24,375 144 484 1088
2019-12-06 18:53:36 GMT 50.530544 -0.012397 24,300 144 473 2048
2019-12-06 18:53:33 GMT 50.537842 -0.020527 24,225 144 482 896
2019-12-06 18:53:30 GMT 50.543674 -0.027020 24,150 144 480 768
2019-12-06 18:53:27 GMT 50.548370 -0.032236 24,175 144 478 832
2019-12-06 18:53:24 GMT 50.552380 -0.036671 24,175 144 478 896
2019-12-06 18:53:18 GMT 50.562424 -0.047993 24,075 144 475 1536
2019-12-06 18:53:15 GMT 50.568161 -0.054412 24,025 144 475 1728
2019-12-06 18:53:12 GMT 50.572083 -0.058835 23,225 144 473 2048
2019-12-06 18:53:09 GMT 50.578541 -0.066066 23,700 144 474 2048
2019-12-06 18:53:06 GMT 50.583893 -0.072062 23,700 144 474 2048
2019-12-06 18:53:03 GMT 50.591019 -0.080096 23,675 144 473 2048
2019-12-06 18:52:59 GMT 50.601353 -0.091602 23,225 144 473 1984
2019-12-06 18:52:56 GMT 50.601353 -0.091602 23,325 144 472 1984
2019-12-06 18:52:52 GMT 50.608109 -0.099166 22,875 145 469 1728
2019-12-06 18:52:49 GMT 50.614883 -0.106683 23,000 145 469 1728
2019-12-06 18:52:46 GMT 50.619507 -0.111815 22,900 144 470 1856
2019-12-06 18:52:43 GMT 50.624859 -0.117732 22,975 144 470 1856
2019-12-06 18:52:40 GMT 50.629852 -0.123235 21,875 149 455 1920
2019-12-06 18:52:37 GMT 50.638359 -0.132578 22,625 145 468 1728
2019-12-06 18:52:33 GMT 50.643387 -0.137997 22,675 145 467 1664
2019-12-06 18:52:30 GMT 50.647671 -0.142600 22,550 146 465 1536
2019-12-06 18:52:27 GMT 50.654423 -0.149800 22,400 147 462 1600
2019-12-06 18:52:24 GMT 50.658005 -0.153586 22,400 147 463 1536
2019-12-06 18:52:21 GMT 50.664104 -0.159821 22,250 148 461 1792
2019-12-06 18:52:18 GMT 50.670994 -0.166651 21,950 149 459 1920
2019-12-06 18:52:14 GMT 50.677509 -0.172958 22,075 149 459 1920
2019-12-06 18:52:10 GMT 50.683331 -0.178452 22,025 149 456 1856
2019-12-06 18:52:06 GMT 50.690643 -0.185209 21,775 149 457 2112
2019-12-06 18:52:03 GMT 50.697601 -0.191518 21,775 149 457 2112
2019-12-06 18:52:00 GMT 50.700878 -0.194550 21,725 149 457 2048
2019-12-06 18:51:57 GMT 50.714752 -0.207214 21,500 149 457 1856
2019-12-06 18:51:54 GMT 50.714752 -0.207214 21,475 149 456 1856
2019-12-06 18:51:51 GMT 50.726067 -0.217590 21,200 149 453 1920
2019-12-06 18:51:48 GMT 50.726067 -0.217590 21,275 149 455 1920
2019-12-06 18:51:44 GMT 50.731140 -0.222244 21,175 149 455 1920
2019-12-06 18:51:40 GMT 50.739471 -0.229950 21,025 149 453 1856
2019-12-06 18:51:37 GMT 50.744545 -0.234604 20,850 149 452 1792
2019-12-06 18:51:34 GMT 50.756836 -0.245856 20,850 150 450 1792
2019-12-06 18:51:31 GMT 50.756836 -0.245856 20,225 150 448 1728
2019-12-06 18:51:28 GMT 50.762238 -0.250756 20,650 149 449 1728
2019-12-06 18:51:25 GMT 50.768009 -0.256042 19,950 149 444 1280
2019-12-06 18:51:22 GMT 50.771965 -0.259628 20,475 150 448 1536
2019-12-06 18:51:19 GMT 50.777664 -0.264860 20,375 150 446 1408
2019-12-06 18:51:15 GMT 50.784115 -0.270691 20,275 149 433 1600
2019-12-06 18:51:12 GMT 50.789097 -0.275192 20,125 150 442 1088
2019-12-06 18:51:09 GMT 50.796890 -0.282304 20,125 149 428 1984
2019-12-06 18:51:06 GMT 50.801804 -0.286865 20,100 149 437 1216
2019-12-06 18:51:03 GMT 50.806366 -0.290989 20,075 149 435 1344
2019-12-06 18:51:00 GMT 50.810898 -0.295146 20,000 149 434 1472
2019-12-06 18:50:57 GMT 50.815384 -0.299303 19,925 149 433 1600
2019-12-06 18:50:54 GMT 50.821636 -0.304947 19,575 149 430 1920
2019-12-06 18:50:50 GMT 50.826462 -0.309399 17,875 149 428 1984
2019-12-06 18:50:47 GMT 50.833321 -0.315704 19,550 150 426 2368
2019-12-06 18:50:44 GMT 50.838116 -0.320053 18,650 150 426 3520
2019-12-06 18:50:41 GMT 50.842587 -0.324173 19,450 150 426 2176
2019-12-06 18:50:38 GMT 50.849380 -0.330429 19,400 150 426 2240
2019-12-06 18:50:35 GMT 50.857590 -0.337830 19,100 150 425 2688
2019-12-06 18:50:32 GMT 50.857590 -0.337830 19,025 150 425 3072
2019-12-06 18:50:29 GMT 50.862350 -0.342135 18,425 150 426 3520
2019-12-06 18:50:26 GMT 50.868164 -0.347406 18,500 150 428 3648
2019-12-06 18:50:22 GMT 50.874660 -0.353241 18,525 150 426 3584
2019-12-06 18:50:19 GMT 50.880798 -0.358837 17,600 150 429 3392
2019-12-06 18:50:16 GMT 50.887695 -0.364990 18,125 150 429 3264
2019-12-06 18:50:13 GMT 50.894989 -0.371531 17,900 150 431 3008
2019-12-06 18:50:10 GMT 50.894989 -0.371531 17,800 150 431 2816
2019-12-06 18:50:04 GMT 50.906036 -0.381470 17,500 150 430 1984
2019-12-06 18:50:01 GMT 50.911606 -0.386526 17,475 150 430 2176
2019-12-06 18:49:58 GMT 50.916779 -0.391202 17,025 150 428 1600
2019-12-06 18:49:55 GMT 50.923004 -0.396770 17,275 150 427 1408
2019-12-06 18:49:52 GMT 50.928474 -0.401688 17,150 150 424 1024
2019-12-06 18:49:49 GMT 50.932941 -0.405731 17,025 150 421 704
2019-12-06 18:49:46 GMT 50.936668 -0.409088 17,025 150 413 0
2019-12-06 18:49:43 GMT 50.942440 -0.414200 17,025 150 415 64
2019-12-06 18:49:40 GMT 50.947449 -0.418668 17,025 150 412 -64
2019-12-06 18:49:37 GMT 50.951797 -0.422528 17,025 150 410 -64
2019-12-06 18:49:34 GMT 50.958454 -0.428391 17,025 150 408 0
2019-12-06 18:49:28 GMT 50.969650 -0.438265 17,000 150 403 448
2019-12-06 18:49:25 GMT 50.972885 -0.441208 17,000 151 404 384
2019-12-06 18:49:22 GMT 50.977478 -0.445169 16,975 150 403 448
2019-12-06 18:49:19 GMT 50.981735 -0.448955 16,950 150 402 640
2019-12-06 18:49:16 GMT 50.985626 -0.452369 16,925 151 402 1088
2019-12-06 18:49:13 GMT 50.993134 -0.458976 16,625 150 402 1216
2019-12-06 18:49:09 GMT 50.997986 -0.463282 16,850 150 402 1216
2019-12-06 18:49:06 GMT 51.003204 -0.467810 16,800 150 402 1408
2019-12-06 18:49:03 GMT 51.009056 -0.473022 16,700 150 402 1728
2019-12-06 18:49:00 GMT 51.013897 -0.477371 16,650 150 402 1984
2019-12-06 18:48:57 GMT 51.022324 -0.484848 16,425 150 400 2304
2019-12-06 18:48:54 GMT 51.022324 -0.484848 16,250 150 400 2496
2019-12-06 18:48:51 GMT 51.028423 -0.490417 16,200 150 399 2432
2019-12-06 18:48:48 GMT 51.030983 -0.492706 16,150 150 398 2304
2019-12-06 18:48:45 GMT 51.037731 -0.498810 16,075 150 398 2304
2019-12-06 18:48:42 GMT 51.042847 -0.503441 15,875 149 397 2240
2019-12-06 18:48:39 GMT 51.051697 -0.511627 15,750 149 395 2432
2019-12-06 18:48:33 GMT 51.061195 -0.520325 15,300 149 393 2560
2019-12-06 18:48:30 GMT 51.066238 -0.524968 15,425 149 393 2560
2019-12-06 18:48:27 GMT 51.071575 -0.529938 15,275 149 393 2688
2019-12-06 18:48:24 GMT 51.071575 -0.529938 15,150 149 392 2752
2019-12-06 18:48:21 GMT 51.075020 -0.533142 14,900 149 391 2880
2019-12-06 18:48:18 GMT 51.080978 -0.538635 14,900 149 391 2880
2019-12-06 18:48:14 GMT 51.087215 -0.544434 14,750 149 391 2944
2019-12-06 18:48:11 GMT 51.091873 -0.548782 14,575 149 390 2944
2019-12-06 18:48:08 GMT 51.095306 -0.551989 14,250 149 390 2880
2019-12-06 18:48:05 GMT 51.104630 -0.560684 14,150 149 390 2816
2019-12-06 18:48:02 GMT 51.108955 -0.564804 14,050 149 389 2816
2019-12-06 18:47:59 GMT 51.108955 -0.564804 13,925 149 388 2816
2019-12-06 18:47:56 GMT 51.114532 -0.570027 13,300 149 388 2880
2019-12-06 18:47:53 GMT 51.120129 -0.575256 13,675 149 388 2944
2019-12-06 18:47:49 GMT 51.125343 -0.580215 13,450 149 386 2880
2019-12-06 18:47:46 GMT 51.128448 -0.583092 13,425 149 386 2880
2019-12-06 18:47:43 GMT 51.134605 -0.588913 11,950 149 385 2944
2019-12-06 18:47:40 GMT 51.139820 -0.593796 13,100 203 287 768
2019-12-06 18:47:37 GMT 51.148106 -0.601501 12,800 149 384 3072
2019-12-06 18:47:34 GMT 51.148106 -0.601501 12,600 149 384 2944
2019-12-06 18:47:31 GMT 51.152435 -0.605469 12,400 149 384 3008
2019-12-06 18:47:28 GMT 51.159164 -0.611745 12,200 149 382 2752
2019-12-06 18:47:25 GMT 51.163742 -0.616051 12,275 149 383 2752
2019-12-06 18:47:22 GMT 51.165005 -0.617218 11,300 149 365 960
2019-12-06 18:47:19 GMT 51.169876 -0.621767 12,000 149 380 2496
2019-12-06 18:47:16 GMT 51.176285 -0.627705 11,925 149 381 2624
2019-12-06 18:47:13 GMT 51.185669 -0.636465 11,400 149 373 1600
2019-12-06 18:47:10 GMT 51.189240 -0.639879 11,575 149 354 896
2019-12-06 18:47:04 GMT 51.193447 -0.643845 11,450 149 359 896
2019-12-06 18:47:01 GMT 51.197296 -0.647451 11,400 149 370 1280
2019-12-06 18:46:57 GMT 51.204388 -0.654144 11,275 149 365 960
2019-12-06 18:46:54 GMT 51.208145 -0.657695 10,850 149 357 832
2019-12-06 18:46:51 GMT 51.212723 -0.662003 11,125 149 352 896
2019-12-06 18:46:48 GMT 51.216122 -0.665283 11,100 149 349 896
2019-12-06 18:46:45 GMT 51.221428 -0.670319 11,075 148 344 1024
2019-12-06 18:46:42 GMT 51.225037 -0.673803 11,025 148 344 1024
2019-12-06 18:46:38 GMT 51.231262 -0.679816 10,950 148 334 1408
2019-12-06 18:46:35 GMT 51.234970 -0.683454 10,925 148 335 1280
2019-12-06 18:46:32 GMT 51.238953 -0.687239 10,700 148 329 1984
2019-12-06 18:46:29 GMT 51.242615 -0.690802 10,725 149 326 2368
2019-12-06 18:46:26 GMT 51.247265 -0.695190 10,575 149 323 2944
2019-12-06 18:46:23 GMT 51.250626 -0.698374 10,475 150 322 3264
2019-12-06 18:46:20 GMT 51.258911 -0.705797 10,150 152 321 3840
2019-12-06 18:46:17 GMT 51.258911 -0.705797 10,150 154 320 3840
2019-12-06 18:46:14 GMT 51.263992 -0.709732 9,900 160 317 3584
2019-12-06 18:46:10 GMT 51.267288 -0.711810 9,375 189 295 1472
2019-12-06 18:46:07 GMT 51.270630 -0.713517 9,250 189 295 1472
2019-12-06 18:46:04 GMT 51.275208 -0.715225 9,400 171 310 2880
2019-12-06 18:46:01 GMT 51.280315 -0.716476 9,250 181 303 2048
2019-12-06 18:45:56 GMT 51.287392 -0.716553 8,950 191 294 1344
2019-12-06 18:45:53 GMT 51.292831 -0.715522 8,925 201 287 832
2019-12-06 18:45:49 GMT 51.297073 -0.713882 8,850 203 287 768
2019-12-06 18:45:45 GMT 51.300892 -0.711899 8,750 204 285 768
2019-12-06 18:45:42 GMT 51.306244 -0.708247 8,675 205 284 1024
2019-12-06 18:45:39 GMT 51.309551 -0.705795 8,650 205 283 1088
2019-12-06 18:45:36 GMT 51.312901 -0.703278 8,600 205 282 1152
2019-12-06 18:45:33 GMT 51.316681 -0.700527 8,525 206 281 1088
2019-12-06 18:45:29 GMT 51.321423 -0.697021 8,475 206 281 1024
2019-12-06 18:45:26 GMT 51.326355 -0.693283 8,400 206 280 960
2019-12-06 18:45:23 GMT 51.328686 -0.691528 7,525 206 281 1856
2019-12-06 18:45:20 GMT 51.330593 -0.690155 8,300 206 280 1024
2019-12-06 18:45:16 GMT 51.340229 -0.682831 8,225 206 282 1280
2019-12-06 18:45:13 GMT 51.340229 -0.682831 8,175 206 281 1280
2019-12-06 18:45:10 GMT 51.344700 -0.679474 8,075 206 281 1728
2019-12-06 18:45:07 GMT 51.348450 -0.676624 8,025 206 281 1856
2019-12-06 18:45:04 GMT 51.351028 -0.674591 7,925 206 282 2304
2019-12-06 18:45:01 GMT 51.353622 -0.672616 7,825 206 281 2816
2019-12-06 18:44:58 GMT 51.359940 -0.667716 7,550 207 280 3200
2019-12-06 18:44:55 GMT 51.365040 -0.663757 7,550 207 279 3520
2019-12-06 18:44:52 GMT 51.365040 -0.663757 6,450 207 279 3584
2019-12-06 18:44:49 GMT 51.368301 -0.661240 7,100 207 279 3584
2019-12-06 18:44:46 GMT 51.370861 -0.659256 7,125 207 279 3520
2019-12-06 18:44:43 GMT 51.374584 -0.656281 6,875 207 279 2944
2019-12-06 18:44:40 GMT 51.379425 -0.652466 6,475 206 279 2304
2019-12-06 18:44:37 GMT 51.382915 -0.649796 6,625 207 278 2176
2019-12-06 18:44:34 GMT 51.384979 -0.648193 6,550 207 278 1984
2019-12-06 18:44:31 GMT 51.388458 -0.645447 6,400 207 277 1536
2019-12-06 18:44:28 GMT 51.395370 -0.640028 6,300 206 276 1088
2019-12-06 18:44:22 GMT 51.398373 -0.637741 6,200 206 276 512
2019-12-06 18:44:19 GMT 51.403427 -0.633867 6,075 207 274 384
2019-12-06 18:44:16 GMT 51.407078 -0.631027 6,125 207 272 512
2019-12-06 18:44:13 GMT 51.410057 -0.628662 6,150 207 272 512
2019-12-06 18:44:10 GMT 51.412991 -0.626373 6,100 208 267 896
2019-12-06 18:44:07 GMT 51.415459 -0.624390 6,050 209 262 1088
2019-12-06 18:44:04 GMT 51.420017 -0.620499 6,050 210 260 1152
2019-12-06 18:44:01 GMT 51.423111 -0.617684 6,000 218 241 1792
2019-12-06 18:43:57 GMT 51.428818 -0.611572 5,825 219 239 1856
2019-12-06 18:43:51 GMT 51.432266 -0.607143 5,700 224 232 2112
2019-12-06 18:43:47 GMT 51.434921 -0.603209 5,550 229 225 2496
2019-12-06 18:43:44 GMT 51.437290 -0.598984 5,475 230 224 2624
2019-12-06 18:43:41 GMT 51.438782 -0.595932 5,325 234 220 2752
2019-12-06 18:43:37 GMT 51.441101 -0.590664 4,550 239 202 1728
2019-12-06 18:43:34 GMT 51.444508 -0.582047 4,825 239 212 2752
2019-12-06 18:43:31 GMT 51.446136 -0.577747 4,650 239 210 2432
2019-12-06 18:43:28 GMT 51.446136 -0.577747 4,500 239 208 2176
2019-12-06 18:43:25 GMT 51.447647 -0.573813 4,400 239 206 1920
2019-12-06 18:43:22 GMT 51.448833 -0.570679 4,325 239 202 1728
2019-12-06 18:43:19 GMT 51.450138 -0.567322 4,225 239 197 1280
2019-12-06 18:43:16 GMT 51.452141 -0.562057 4,225 239 196 1152
2019-12-06 18:43:13 GMT 51.453259 -0.559082 4,125 240 188 768
2019-12-06 18:43:10 GMT 51.454514 -0.555700 4,100 240 186 704
2019-12-06 18:43:07 GMT 51.455956 -0.551758 4,075 240 179 832
2019-12-06 18:43:04 GMT 51.457581 -0.547312 4,025 241 168 1408
2019-12-06 18:43:01 GMT 51.458519 -0.544662 4,000 241 168 1408
2019-12-06 18:42:57 GMT 51.459686 -0.541225 3,850 243 162 1280
2019-12-06 18:42:54 GMT 51.460602 -0.538479 3,750 244 158 1024
2019-12-06 18:42:51 GMT 51.461655 -0.534915 3,725 246 149 896
2019-12-06 18:42:47 GMT 51.462799 -0.530907 3,625 251 139 1024
2019-12-06 18:42:44 GMT 51.463623 -0.527566 3,650 251 139 1024
2019-12-06 18:42:40 GMT 51.464218 -0.523929 3,525 261 129 1600
2019-12-06 18:42:35 GMT 51.464584 -0.517694 3,325 270 122 2176
2019-12-06 18:42:32 GMT 51.464630 -0.513908 3,225 270 121 2112
2019-12-06 18:42:26 GMT 51.464630 -0.510864 2,975 270 120 2112
2019-12-06 18:42:23 GMT 51.464664 -0.506210 2,800 270 120 2304
2019-12-06 18:42:20 GMT 51.464722 -0.503070 2,000 270 124 3200
2019-12-06 18:42:17 GMT 51.464722 -0.500917 2,700 270 120 2496
2019-12-06 18:42:14 GMT 51.464722 -0.500917 2,550 270 121 2496
2019-12-06 18:42:11 GMT 51.464756 -0.497742 2,450 270 121 2560
2019-12-06 18:42:08 GMT 51.464767 -0.494682 1,500 270 131 3456
2019-12-06 18:42:05 GMT 51.464802 -0.492706 2,200 270 122 2880
2019-12-06 18:42:02 GMT 51.464813 -0.490525 2,000 270 124 3200
2019-12-06 18:41:59 GMT 51.464802 -0.487442 900 270 137 2688
2019-12-06 18:41:56 GMT 51.464813 -0.484512 1,650 270 126 3264
2019-12-06 18:41:53 GMT 51.464802 -0.481873 1,625 270 131 3456
2019-12-06 18:41:49 GMT 51.464848 -0.477448 1,375 270 134 3072
2019-12-06 18:41:45 GMT 51.464848 -0.473099 1,150 270 137 2752
2019-12-06 18:41:42 GMT 51.464859 -0.470853 1,025 270 137 2752
2019-12-06 18:41:39 GMT 51.464859 -0.467810 850 270 139 2688
2019-12-06 18:41:34 GMT 51.464905 -0.462910 700 270 141 2752
2019-12-06 18:41:31 GMT 51.464905 -0.459793 550 270 141 384
2019-12-06 18:41:26 GMT 51.464893 -0.453758 0 270 140
2019-12-06 18:41:15 GMT 51.464916 -0.444946 0 270 105
2019-12-06 18:41:08 GMT 51.464931 -0.439453 0 270 63
2019-12-06 18:40:35 GMT 51.464905 -0.434591 0 331 9
2019-12-06 18:40:14 GMT 51.464092 -0.434856 0 19 9
2019-12-06 18:39:57 GMT 51.463543 -0.435166 0 19 8
2019-12-06 18:39:52 GMT 51.463417 -0.435238 0 19 7
2019-12-06 18:39:34 GMT 51.463066 -0.435448 0 36 5
2019-12-06 18:39:10 GMT 51.462936 -0.435612 0 64 3
2019-12-06 18:39:03 GMT 51.462929 -0.435619 0 64 2
2019-12-06 18:38:54 GMT 51.462929 -0.435638 0 64 2
2019-12-06 18:38:21 GMT 51.462879 -0.435742 0 70 2
2019-12-06 18:38:12 GMT 51.462883 -0.435753 0 70 2
2019-12-06 18:38:01 GMT 51.462879 -0.435742 0 70 2
2019-12-06 18:37:36 GMT 51.462883 -0.435753 0 70 2
2019-12-06 18:37:27 GMT 51.462879 -0.435742 0 70 2
2019-12-06 18:37:12 GMT 51.462883 -0.435753 0 70 2
2019-12-06 18:36:47 GMT 51.462879 -0.435760 0 70 2
2019-12-06 18:36:27 GMT 51.462879 -0.435742 0 70 2
2019-12-06 18:35:57 GMT 51.462883 -0.435753 0 70 2
2019-12-06 18:35:37 GMT 51.462879 -0.435760 0 70 2
2019-12-06 18:35:22 GMT 51.462883 -0.435753 0 70 2
2019-12-06 18:34:18 GMT 51.462883 -0.435753 0 70 2
2019-12-06 18:33:53 GMT 51.462879 -0.435760 0 70 2
2019-12-06 18:33:28 GMT 51.462883 -0.435753 0 70 2
2019-12-06 18:33:13 GMT 51.462879 -0.435760 0 70 2
2019-12-06 18:32:43 GMT 51.462883 -0.435753 0 70 1
2019-12-06 18:32:23 GMT 51.462879 -0.435760 0 70 1
2019-12-06 18:32:18 GMT 51.462883 -0.435753 0 70 1
2019-12-06 18:32:13 GMT 51.462879 -0.435760 0 70 1
2019-12-06 18:31:52 GMT 51.462883 -0.435753 0 70 1
2019-12-06 18:31:42 GMT 51.462826 -0.435982 0 84 7
2019-12-06 18:31:10 GMT 51.462811 -0.437260 0 90 5
2019-12-06 18:30:45 GMT 51.462811 -0.437430 0 90 0
2019-12-06 18:30:41 GMT 51.462811 -0.437431 0 90 0
2019-12-06 18:30:25 GMT 51.462811 -0.437430 0 90 0
2019-12-06 18:30:10 GMT 51.462811 -0.437431 0 90 0
2019-12-06 18:30:05 GMT 51.462811 -0.437449 0 90 0
2019-12-06 18:29:55 GMT 51.462811 -0.437430 0 90 0
2019-12-06 18:29:41 GMT 51.462811 -0.437449 0 90 0
2019-12-06 18:29:25 GMT 51.462811 -0.437431 0 90 0
2019-12-06 18:29:18 GMT 51.462811 -0.437430 0 90 0
2019-12-06 18:29:08 GMT 51.462811 -0.437431 0 90 0
2019-12-06 18:28:58 GMT 51.462811 -0.437449 0 90 2
2019-12-06 18:28:35 GMT 51.462799 -0.438952 0 90 10
2019-12-06 18:28:26 GMT 51.462803 -0.439453 0 98 9
2019-12-06 18:28:15 GMT 51.463020 -0.440044 0 140 9
2019-12-06 18:28:06 GMT 51.463242 -0.440464 0 106 10
2019-12-06 18:27:56 GMT 51.463291 -0.441253 0 87 11
2019-12-06 18:27:45 GMT 51.463131 -0.441958 0 33 10
2019-12-06 18:27:35 GMT 51.462719 -0.442295 0 25 11

Making use of Plane Finder data

You are free to use the raw flight data, aircraft information and images provided in this report for your own purposes provided the data is correctly attributed to Plane Finder. We ask that you please credit Plane Finder and link to planefinder.net in close proximity to the content.

Optionally one of the following logos (no smaller then 150x24px) can be used and must link to planefinder.net

Embedding the Plane Finder map

You are welcome to embed the Plane Finder playback map on your website to offer visitors a more interactive experience. We suggest using the following HTML code:

<iframe src="//planefinder.net/data/report/TU791-TS-IMS-7700-squawk-2019-12-06/map" width="800" height="600" seamless="seamless"></iframe>

Where our data comes from

Plane Finder has a global network of data feeds and antenna radars that receive data broadcast directly from aircraft. The primary technologies used are ADS-B and MLAT. We also show feeds from the FAA and a FLARM glider feed.

Click here to find out more about the Plane Finder network.

How we collect our data